FDX6030 RJAA-PANC
Flight info
| Callsign | FDX6030 |
|---|---|
| Flight time | 8h 10m |
| Altitude | 37000 |
| Route | GULBO Y808 PUTER A590 HAMND NEELL7 |
| Aircraft | B77L/H-SDE1E2E3FGHIJ2J3J4J5M1RWXY/LB1D1 |
Departure
| Time | 2026-05-07 19:22 |
|---|---|
| Airport | Narita International Airport (RJAA) |
Arrival
| Time | 2026-05-08 03:32 |
|---|---|
| Airport | Ted Stevens Anchorage International Airport (PANC) |
| Time | Latitude | Longitude | Altitude | Speed | Heading |
|---|---|---|---|---|---|
| 2026-05-07 19:09 | 35.76987 | 140.37898 | 153 ft | 4 kts | 59° |
| 2026-05-07 19:09 | 35.76973 | 140.37869 | 153 ft | 4 kts | 53° |
| 2026-05-07 19:09 | 35.76955 | 140.37847 | 153 ft | 4 kts | 25° |
| 2026-05-07 19:10 | 35.76930 | 140.37841 | 153 ft | 4 kts | 342° |
| 2026-05-07 19:10 | 35.76920 | 140.37846 | 153 ft | 1 kts | 329° |
| 2026-05-07 19:16 | 35.76940 | 140.37832 | 153 ft | 6 kts | 329° |
| 2026-05-07 19:16 | 35.76994 | 140.37793 | 153 ft | 12 kts | 329° |
| 2026-05-07 19:16 | 35.77060 | 140.37745 | 153 ft | 10 kts | 329° |
| 2026-05-07 19:16 | 35.77119 | 140.37703 | 153 ft | 11 kts | 329° |
| 2026-05-07 19:17 | 35.77152 | 140.37658 | 153 ft | 3 kts | 270° |
| 2026-05-07 19:17 | 35.77147 | 140.37617 | 153 ft | 4 kts | 254° |
| 2026-05-07 19:17 | 35.77127 | 140.37559 | 153 ft | 10 kts | 242° |
| 2026-05-07 19:17 | 35.77083 | 140.37463 | 153 ft | 16 kts | 238° |
| 2026-05-07 19:18 | 35.77055 | 140.37370 | 152 ft | 7 kts | 283° |
| 2026-05-07 19:18 | 35.77068 | 140.37354 | 152 ft | 3 kts | 327° |
| 2026-05-07 19:18 | 35.77110 | 140.37324 | 152 ft | 11 kts | 329° |
| 2026-05-07 19:18 | 35.77192 | 140.37265 | 152 ft | 13 kts | 330° |
| 2026-05-07 19:19 | 35.77276 | 140.37200 | 152 ft | 13 kts | 327° |
| 2026-05-07 19:19 | 35.77330 | 140.37150 | 152 ft | 8 kts | 305° |
| 2026-05-07 19:19 | 35.77338 | 140.37116 | 152 ft | 4 kts | 270° |
| 2026-05-07 19:19 | 35.77337 | 140.37103 | 152 ft | 0 kts | 265° |
| 2026-05-07 19:20 | 35.77332 | 140.37078 | 152 ft | 9 kts | 252° |
| 2026-05-07 19:20 | 35.77273 | 140.37012 | 151 ft | 15 kts | 193° |
| 2026-05-07 19:21 | 35.77198 | 140.37013 | 151 ft | 8 kts | 172° |
| 2026-05-07 19:21 | 35.77155 | 140.37036 | 151 ft | 12 kts | 149° |
| 2026-05-07 19:21 | 35.76847 | 140.37257 | 153 ft | 89 kts | 150° |
| 2026-05-07 19:21 | 35.76099 | 140.37799 | 153 ft | 162 kts | 149° |
| 2026-05-07 19:22 | 35.74925 | 140.38651 | 162 ft | 229 kts | 149° |
| 2026-05-07 19:22 | 35.73477 | 140.39723 | 1052 ft | 229 kts | 152° |
| 2026-05-07 19:22 | 35.72026 | 140.40780 | 1692 ft | 252 kts | 156° |
| 2026-05-07 19:22 | 35.70504 | 140.41849 | 2269 ft | 254 kts | 154° |
| 2026-05-07 19:23 | 35.68965 | 140.42962 | 2804 ft | 257 kts | 154° |
| 2026-05-07 19:23 | 35.67409 | 140.44060 | 3292 ft | 259 kts | 155° |
| 2026-05-07 19:23 | 35.65857 | 140.45175 | 3620 ft | 262 kts | 155° |
| 2026-05-07 19:23 | 35.64271 | 140.46324 | 4133 ft | 262 kts | 156° |
| 2026-05-07 19:24 | 35.62695 | 140.47456 | 4703 ft | 263 kts | 155° |
| 2026-05-07 19:24 | 35.61106 | 140.48620 | 5160 ft | 271 kts | 155° |
| 2026-05-07 19:24 | 35.59517 | 140.49765 | 5557 ft | 267 kts | 156° |
| 2026-05-07 19:24 | 35.57897 | 140.50919 | 6004 ft | 270 kts | 156° |
| 2026-05-07 19:25 | 35.56263 | 140.52087 | 6451 ft | 272 kts | 156° |
| 2026-05-07 19:25 | 35.54627 | 140.53265 | 6886 ft | 273 kts | 156° |
| 2026-05-07 19:25 | 35.52988 | 140.54440 | 7303 ft | 274 kts | 157° |
| 2026-05-07 19:25 | 35.51330 | 140.55624 | 7748 ft | 279 kts | 156° |
| 2026-05-07 19:26 | 35.49646 | 140.56834 | 8187 ft | 281 kts | 156° |
| 2026-05-07 19:26 | 35.47959 | 140.58049 | 8625 ft | 282 kts | 156° |
| 2026-05-07 19:26 | 35.46261 | 140.59263 | 9081 ft | 284 kts | 156° |
| 2026-05-07 19:26 | 35.44629 | 140.60718 | 9409 ft | 297 kts | 143° |
| 2026-05-07 19:27 | 35.43164 | 140.62538 | 9533 ft | 301 kts | 139° |
| 2026-05-07 19:27 | 35.41774 | 140.64456 | 9562 ft | 301 kts | 137° |
| 2026-05-07 19:27 | 35.40423 | 140.66405 | 9579 ft | 299 kts | 136° |
| 2026-05-07 19:27 | 35.39117 | 140.68391 | 9588 ft | 301 kts | 131° |
| 2026-05-07 19:28 | 35.37938 | 140.70525 | 9611 ft | 303 kts | 129° |
| 2026-05-07 19:28 | 35.36771 | 140.72685 | 9616 ft | 304 kts | 130° |
| 2026-05-07 19:28 | 35.35581 | 140.74823 | 9619 ft | 303 kts | 130° |
| 2026-05-07 19:28 | 35.34387 | 140.76948 | 9618 ft | 302 kts | 130° |
| 2026-05-07 19:29 | 35.33201 | 140.79075 | 9620 ft | 302 kts | 130° |
| 2026-05-07 19:29 | 35.32016 | 140.81204 | 9632 ft | 303 kts | 130° |
| 2026-05-07 19:29 | 35.30828 | 140.83337 | 9632 ft | 303 kts | 130° |
| 2026-05-07 19:29 | 35.29638 | 140.85467 | 9638 ft | 303 kts | 130° |
| 2026-05-07 19:30 | 35.28448 | 140.87597 | 9636 ft | 303 kts | 130° |
| 2026-05-07 19:30 | 35.27260 | 140.89721 | 9633 ft | 303 kts | 130° |
| 2026-05-07 19:30 | 35.26069 | 140.91847 | 9634 ft | 302 kts | 130° |
| 2026-05-07 19:30 | 35.24884 | 140.93968 | 9633 ft | 302 kts | 130° |
| 2026-05-07 19:31 | 35.23694 | 140.96095 | 9655 ft | 303 kts | 130° |
| 2026-05-07 19:31 | 35.22529 | 140.98196 | 9635 ft | 303 kts | 125° |
| 2026-05-07 19:31 | 35.21803 | 141.00667 | 9419 ft | 319 kts | 98° |
| 2026-05-07 19:31 | 35.21898 | 141.03400 | 9071 ft | 324 kts | 81° |
| 2026-05-07 19:32 | 35.22351 | 141.06032 | 9191 ft | 309 kts | 77° |
| 2026-05-07 19:32 | 35.22896 | 141.08591 | 9517 ft | 313 kts | 76° |
| 2026-05-07 19:32 | 35.23490 | 141.11160 | 10088 ft | 314 kts | 75° |
| 2026-05-07 19:32 | 35.24212 | 141.13727 | 10673 ft | 324 kts | 68° |
| 2026-05-07 19:33 | 35.25100 | 141.16308 | 11258 ft | 338 kts | 68° |
| 2026-05-07 19:33 | 35.25992 | 141.18989 | 11799 ft | 341 kts | 69° |
| 2026-05-07 19:33 | 35.26870 | 141.21705 | 12352 ft | 346 kts | 69° |
| 2026-05-07 19:33 | 35.27767 | 141.24454 | 12911 ft | 351 kts | 69° |
| 2026-05-07 19:34 | 35.28682 | 141.27237 | 13463 ft | 353 kts | 69° |
| 2026-05-07 19:34 | 35.29597 | 141.30042 | 13978 ft | 356 kts | 69° |
| 2026-05-07 19:34 | 35.30515 | 141.32860 | 14478 ft | 358 kts | 69° |
| 2026-05-07 19:34 | 35.31440 | 141.35692 | 15001 ft | 358 kts | 69° |
| 2026-05-07 19:35 | 35.32364 | 141.38528 | 15515 ft | 359 kts | 69° |
| 2026-05-07 19:35 | 35.33291 | 141.41374 | 16050 ft | 361 kts | 69° |
| 2026-05-07 19:35 | 35.34223 | 141.44242 | 16587 ft | 364 kts | 69° |
| 2026-05-07 19:35 | 35.35161 | 141.47136 | 17052 ft | 369 kts | 69° |
| 2026-05-07 19:36 | 35.36130 | 141.50123 | 17239 ft | 390 kts | 69° |
| 2026-05-07 19:36 | 35.37172 | 141.53339 | 17367 ft | 422 kts | 69° |
| 2026-05-07 19:36 | 35.37907 | 141.55612 | 17421 ft | 444 kts | 69° |
| 2026-05-07 19:36 | 35.39087 | 141.59256 | 17439 ft | 475 kts | 69° |
| 2026-05-07 19:37 | 35.40317 | 141.63069 | 17424 ft | 482 kts | 69° |
| 2026-05-07 19:37 | 35.41542 | 141.66855 | 17422 ft | 478 kts | 69° |
| 2026-05-07 19:37 | 35.42760 | 141.70657 | 17395 ft | 476 kts | 70° |
| 2026-05-07 19:37 | 35.43619 | 141.74560 | 17389 ft | 473 kts | 83° |
| 2026-05-07 19:38 | 35.44033 | 141.78537 | 17766 ft | 469 kts | 85° |
| 2026-05-07 19:38 | 35.44239 | 141.82538 | 18233 ft | 472 kts | 94° |
| 2026-05-07 19:38 | 35.44157 | 141.86585 | 18646 ft | 478 kts | 92° |
| 2026-05-07 19:38 | 35.44164 | 141.90675 | 19058 ft | 482 kts | 92° |
| 2026-05-07 19:39 | 35.44109 | 141.94796 | 19469 ft | 484 kts | 92° |
| 2026-05-07 19:39 | 35.44086 | 141.98926 | 19885 ft | 486 kts | 92° |
| 2026-05-07 19:39 | 35.44049 | 142.03088 | 20306 ft | 489 kts | 92° |
| 2026-05-07 19:39 | 35.44015 | 142.07276 | 20740 ft | 493 kts | 92° |
| 2026-05-07 19:40 | 35.43978 | 142.11487 | 21182 ft | 496 kts | 92° |
| 2026-05-07 19:40 | 35.43938 | 142.15731 | 21621 ft | 500 kts | 92° |
| 2026-05-07 19:40 | 35.43899 | 142.20009 | 22071 ft | 503 kts | 92° |
| 2026-05-07 19:40 | 35.43855 | 142.24311 | 22534 ft | 507 kts | 92° |
| 2026-05-07 19:41 | 35.43813 | 142.28654 | 22993 ft | 511 kts | 92° |
| 2026-05-07 19:41 | 35.43766 | 142.33022 | 23472 ft | 515 kts | 92° |
| 2026-05-07 19:41 | 35.43719 | 142.37427 | 23870 ft | 518 kts | 92° |
| 2026-05-07 19:41 | 35.43670 | 142.41862 | 24277 ft | 521 kts | 92° |
| 2026-05-07 19:42 | 35.43617 | 142.46250 | 24672 ft | 523 kts | 93° |
| 2026-05-07 19:42 | 35.43566 | 142.50716 | 24973 ft | 527 kts | 93° |
| 2026-05-07 19:42 | 35.43507 | 142.55226 | 25131 ft | 530 kts | 93° |
| 2026-05-07 19:42 | 35.43452 | 142.59738 | 25290 ft | 528 kts | 93° |
| 2026-05-07 19:43 | 35.43392 | 142.64239 | 25454 ft | 527 kts | 93° |
| 2026-05-07 19:43 | 35.43331 | 142.68729 | 25618 ft | 528 kts | 93° |
| 2026-05-07 19:43 | 35.43270 | 142.73232 | 25787 ft | 529 kts | 93° |
| 2026-05-07 19:43 | 35.43204 | 142.77750 | 25950 ft | 531 kts | 93° |
| 2026-05-07 19:44 | 35.43140 | 142.82288 | 26140 ft | 532 kts | 93° |
| 2026-05-07 19:44 | 35.43070 | 142.86826 | 26293 ft | 533 kts | 93° |
| 2026-05-07 19:44 | 35.43001 | 142.91378 | 26462 ft | 534 kts | 93° |
| 2026-05-07 19:44 | 35.42930 | 142.95931 | 26637 ft | 535 kts | 93° |
| 2026-05-07 19:45 | 35.42855 | 143.00496 | 26810 ft | 536 kts | 93° |
| 2026-05-07 19:45 | 35.42781 | 143.05076 | 26988 ft | 538 kts | 93° |
| 2026-05-07 19:45 | 35.42703 | 143.09662 | 27163 ft | 539 kts | 93° |
| 2026-05-07 19:45 | 35.42624 | 143.14264 | 27336 ft | 541 kts | 93° |
| 2026-05-07 19:46 | 35.42544 | 143.18865 | 27515 ft | 542 kts | 93° |
| 2026-05-07 19:46 | 35.42459 | 143.23503 | 27686 ft | 543 kts | 93° |
| 2026-05-07 19:46 | 35.42383 | 143.28140 | 27867 ft | 545 kts | 91° |
| 2026-05-07 19:46 | 35.42839 | 143.32761 | 28021 ft | 549 kts | 76° |
| 2026-05-07 19:47 | 35.44215 | 143.37125 | 28256 ft | 551 kts | 61° |
| 2026-05-07 19:47 | 35.46411 | 143.40977 | 28467 ft | 553 kts | 46° |
| 2026-05-07 19:47 | 35.49295 | 143.44085 | 28702 ft | 553 kts | 32° |
| 2026-05-07 19:47 | 35.52691 | 143.46267 | 28917 ft | 552 kts | 17° |
| 2026-05-07 19:48 | 35.56317 | 143.47552 | 29144 ft | 551 kts | 11° |
| 2026-05-07 19:48 | 35.60078 | 143.48766 | 29321 ft | 552 kts | 13° |
| 2026-05-07 19:48 | 35.63740 | 143.50196 | 29465 ft | 552 kts | 17° |
| 2026-05-07 19:48 | 35.67287 | 143.51822 | 29622 ft | 551 kts | 19° |
| 2026-05-07 19:49 | 35.70798 | 143.53704 | 29765 ft | 552 kts | 27° |
| 2026-05-07 19:49 | 35.74060 | 143.56202 | 29974 ft | 552 kts | 31° |
| 2026-05-07 19:49 | 35.77381 | 143.58568 | 30144 ft | 552 kts | 28° |
| 2026-05-07 19:49 | 35.80689 | 143.60989 | 30305 ft | 553 kts | 29° |
| 2026-05-07 19:50 | 35.84010 | 143.63388 | 30463 ft | 553 kts | 28° |
| 2026-05-07 19:50 | 35.87324 | 143.65792 | 30621 ft | 553 kts | 29° |
| 2026-05-07 19:50 | 35.90634 | 143.68199 | 30783 ft | 552 kts | 29° |
| 2026-05-07 19:50 | 35.93933 | 143.70600 | 30938 ft | 551 kts | 29° |
| 2026-05-07 19:51 | 35.97229 | 143.73001 | 31105 ft | 550 kts | 29° |
| 2026-05-07 19:51 | 36.00530 | 143.75408 | 31268 ft | 551 kts | 29° |
| 2026-05-07 19:51 | 36.03827 | 143.77817 | 31441 ft | 551 kts | 29° |
| 2026-05-07 19:51 | 36.07126 | 143.80227 | 31608 ft | 551 kts | 29° |
| 2026-05-07 19:52 | 36.10424 | 143.82638 | 31785 ft | 551 kts | 29° |
| 2026-05-07 19:52 | 36.13717 | 143.85052 | 31948 ft | 550 kts | 29° |
| 2026-05-07 19:52 | 36.17012 | 143.87466 | 32127 ft | 549 kts | 29° |
| 2026-05-07 19:52 | 36.20296 | 143.89875 | 32298 ft | 549 kts | 29° |
| 2026-05-07 19:53 | 36.23567 | 143.92278 | 32646 ft | 544 kts | 29° |
| 2026-05-07 19:53 | 36.26815 | 143.94669 | 33106 ft | 541 kts | 29° |
| 2026-05-07 19:53 | 36.30047 | 143.97049 | 33567 ft | 541 kts | 29° |
| 2026-05-07 19:53 | 36.33283 | 143.99436 | 34015 ft | 541 kts | 29° |
| 2026-05-07 19:54 | 36.36523 | 144.01826 | 34427 ft | 541 kts | 29° |
| 2026-05-07 19:54 | 36.39760 | 144.04217 | 34847 ft | 541 kts | 29° |
| 2026-05-07 19:54 | 36.42993 | 144.06608 | 35287 ft | 541 kts | 29° |
| 2026-05-07 19:54 | 36.46222 | 144.08998 | 35712 ft | 540 kts | 29° |
| 2026-05-07 19:55 | 36.49448 | 144.11388 | 36155 ft | 539 kts | 29° |
| 2026-05-07 19:55 | 36.52667 | 144.13776 | 36564 ft | 540 kts | 29° |
| 2026-05-07 19:55 | 36.55908 | 144.16181 | 36736 ft | 544 kts | 29° |
| 2026-05-07 19:55 | 36.59143 | 144.18586 | 36795 ft | 535 kts | 29° |
| 2026-05-07 19:56 | 36.62302 | 144.20935 | 36811 ft | 524 kts | 29° |
| 2026-05-07 19:56 | 36.65413 | 144.23251 | 36841 ft | 519 kts | 29° |
| 2026-05-07 19:56 | 36.71617 | 144.27877 | 36889 ft | 522 kts | 29° |
| 2026-05-07 19:57 | 36.77898 | 144.32562 | 36896 ft | 529 kts | 29° |
| 2026-05-07 19:57 | 36.84196 | 144.37293 | 36877 ft | 528 kts | 29° |
| 2026-05-07 19:58 | 36.90483 | 144.42015 | 36871 ft | 526 kts | 29° |
| 2026-05-07 19:58 | 36.96750 | 144.46735 | 36876 ft | 527 kts | 29° |
| 2026-05-07 19:59 | 37.02998 | 144.51448 | 36876 ft | 529 kts | 30° |
| 2026-05-07 19:59 | 37.09347 | 144.56249 | 36872 ft | 529 kts | 29° |
| 2026-05-07 20:00 | 37.15605 | 144.60988 | 36874 ft | 529 kts | 29° |
| 2026-05-07 20:00 | 37.21901 | 144.65767 | 36871 ft | 530 kts | 29° |
| 2026-05-07 20:01 | 37.28216 | 144.70569 | 36872 ft | 532 kts | 29° |
| 2026-05-07 20:01 | 37.34545 | 144.75391 | 36868 ft | 532 kts | 29° |
| 2026-05-07 20:02 | 37.40867 | 144.80219 | 36869 ft | 532 kts | 29° |
| 2026-05-07 20:02 | 37.47189 | 144.85054 | 36872 ft | 532 kts | 29° |
| 2026-05-07 20:03 | 37.53512 | 144.89902 | 36876 ft | 533 kts | 29° |
| 2026-05-07 20:03 | 37.59856 | 144.94775 | 36879 ft | 534 kts | 29° |
| 2026-05-07 20:04 | 37.66198 | 144.99656 | 36867 ft | 533 kts | 29° |
| 2026-05-07 20:04 | 37.72517 | 145.04529 | 36862 ft | 530 kts | 29° |
| 2026-05-07 20:05 | 37.78779 | 145.09368 | 36871 ft | 526 kts | 29° |
| 2026-05-07 20:05 | 37.85021 | 145.14201 | 36884 ft | 527 kts | 29° |
| 2026-05-07 20:06 | 37.91294 | 145.19069 | 36878 ft | 530 kts | 29° |
| 2026-05-07 20:06 | 37.97574 | 145.23951 | 36864 ft | 529 kts | 29° |
| 2026-05-07 20:07 | 38.03824 | 145.28819 | 36861 ft | 527 kts | 29° |
| 2026-05-07 20:07 | 38.10076 | 145.33701 | 36863 ft | 528 kts | 29° |
| 2026-05-07 20:08 | 38.16338 | 145.38599 | 36863 ft | 530 kts | 29° |
| 2026-05-07 20:08 | 38.22617 | 145.43520 | 36857 ft | 530 kts | 29° |
| 2026-05-07 20:09 | 38.28886 | 145.48444 | 36855 ft | 529 kts | 28° |
| 2026-05-07 20:10 | 38.37628 | 145.57052 | 36886 ft | 533 kts | 41° |
| 2026-05-07 20:10 | 38.43068 | 145.63426 | 36862 ft | 536 kts | 41° |
| 2026-05-07 20:11 | 38.48534 | 145.69887 | 36841 ft | 535 kts | 41° |
| 2026-05-07 20:11 | 38.53975 | 145.76327 | 36837 ft | 533 kts | 41° |
| 2026-05-07 20:12 | 38.59420 | 145.82783 | 36843 ft | 535 kts | 41° |
| 2026-05-07 20:12 | 38.64878 | 145.89266 | 36837 ft | 536 kts | 41° |
| 2026-05-07 20:13 | 38.70331 | 145.95761 | 36830 ft | 536 kts | 41° |
| 2026-05-07 20:13 | 38.75787 | 146.02271 | 36832 ft | 536 kts | 41° |
| 2026-05-07 20:14 | 38.81237 | 146.08790 | 36831 ft | 536 kts | 41° |
| 2026-05-07 20:14 | 38.86696 | 146.15333 | 36831 ft | 538 kts | 41° |
| 2026-05-07 20:15 | 38.92162 | 146.21901 | 36823 ft | 538 kts | 41° |
| 2026-05-07 20:15 | 38.97617 | 146.28468 | 36820 ft | 537 kts | 41° |
| 2026-05-07 20:16 | 39.03067 | 146.35044 | 36819 ft | 538 kts | 41° |
| 2026-05-07 20:16 | 39.08525 | 146.41644 | 36823 ft | 539 kts | 41° |
| 2026-05-07 20:17 | 39.13990 | 146.48268 | 36821 ft | 540 kts | 41° |
| 2026-05-07 20:17 | 39.19449 | 146.54900 | 36818 ft | 539 kts | 41° |
| 2026-05-07 20:18 | 39.24902 | 146.61537 | 36824 ft | 540 kts | 41° |
| 2026-05-07 20:18 | 39.30330 | 146.68161 | 36825 ft | 541 kts | 41° |
| 2026-05-07 20:19 | 39.35806 | 146.74856 | 36818 ft | 542 kts | 41° |
| 2026-05-07 20:19 | 39.41273 | 146.81559 | 36823 ft | 542 kts | 41° |
| 2026-05-07 20:20 | 39.46736 | 146.88269 | 36826 ft | 542 kts | 41° |
| 2026-05-07 20:20 | 39.52214 | 146.95015 | 36830 ft | 544 kts | 41° |
| 2026-05-07 20:21 | 39.57694 | 147.01777 | 36829 ft | 545 kts | 41° |
| 2026-05-07 20:21 | 39.63172 | 147.08554 | 36830 ft | 544 kts | 41° |
| 2026-05-07 20:22 | 39.68649 | 147.15343 | 36832 ft | 544 kts | 41° |
| 2026-05-07 20:22 | 39.74124 | 147.22149 | 36838 ft | 546 kts | 41° |
| 2026-05-07 20:23 | 39.79613 | 147.28986 | 36839 ft | 547 kts | 41° |
| 2026-05-07 20:23 | 39.85101 | 147.35836 | 36839 ft | 547 kts | 41° |
| 2026-05-07 20:24 | 39.90585 | 147.42700 | 36836 ft | 547 kts | 41° |
| 2026-05-07 20:24 | 39.96077 | 147.49587 | 36842 ft | 549 kts | 41° |
| 2026-05-07 20:25 | 40.01574 | 147.56500 | 36845 ft | 549 kts | 41° |
| 2026-05-07 20:25 | 40.06142 | 147.62255 | 36834 ft | 549 kts | 41° |
| 2026-05-07 20:26 | 40.11626 | 147.69181 | 36843 ft | 549 kts | 41° |
| 2026-05-07 20:26 | 40.17118 | 147.76130 | 36841 ft | 550 kts | 41° |
| 2026-05-07 20:27 | 40.22614 | 147.83105 | 36842 ft | 551 kts | 41° |
| 2026-05-07 20:27 | 40.28112 | 147.90096 | 36845 ft | 551 kts | 41° |
| 2026-05-07 20:28 | 40.33601 | 147.97094 | 36844 ft | 550 kts | 41° |
| 2026-05-07 20:28 | 40.39080 | 148.04094 | 36853 ft | 551 kts | 41° |
| 2026-05-07 20:29 | 40.44570 | 148.11129 | 36854 ft | 552 kts | 41° |
| 2026-05-07 20:29 | 40.50062 | 148.18180 | 36851 ft | 552 kts | 41° |
| 2026-05-07 20:30 | 40.55541 | 148.25233 | 36848 ft | 551 kts | 41° |
| 2026-05-07 20:30 | 40.61018 | 148.32299 | 36848 ft | 551 kts | 41° |
| 2026-05-07 20:31 | 40.66489 | 148.39375 | 36851 ft | 552 kts | 41° |
| 2026-05-07 20:31 | 40.71967 | 148.46479 | 36851 ft | 552 kts | 41° |
| 2026-05-07 20:32 | 40.77403 | 148.53542 | 36852 ft | 552 kts | 41° |
| 2026-05-07 20:32 | 40.82864 | 148.60658 | 36854 ft | 552 kts | 41° |
| 2026-05-07 20:33 | 40.88328 | 148.67794 | 36854 ft | 553 kts | 41° |
| 2026-05-07 20:33 | 40.93793 | 148.74950 | 36860 ft | 553 kts | 41° |
| 2026-05-07 20:34 | 40.99256 | 148.82120 | 36856 ft | 553 kts | 41° |
| 2026-05-07 20:34 | 41.04710 | 148.89296 | 36853 ft | 553 kts | 41° |
| 2026-05-07 20:35 | 41.10163 | 148.96489 | 36858 ft | 553 kts | 41° |
| 2026-05-07 20:35 | 41.15608 | 149.03698 | 36856 ft | 554 kts | 41° |
| 2026-05-07 20:36 | 41.21063 | 149.10934 | 36861 ft | 554 kts | 41° |
| 2026-05-07 20:36 | 41.26507 | 149.18176 | 36853 ft | 554 kts | 41° |
| 2026-05-07 20:37 | 41.31948 | 149.25428 | 36858 ft | 554 kts | 41° |
| 2026-05-07 20:37 | 41.37386 | 149.32699 | 36865 ft | 555 kts | 41° |
| 2026-05-07 20:38 | 41.42829 | 149.39992 | 36861 ft | 555 kts | 41° |
| 2026-05-07 20:38 | 41.48267 | 149.47300 | 36862 ft | 555 kts | 41° |
| 2026-05-07 20:39 | 41.53697 | 149.54610 | 36863 ft | 555 kts | 41° |
| 2026-05-07 20:39 | 41.59129 | 149.61947 | 36866 ft | 556 kts | 41° |
| 2026-05-07 20:40 | 41.64565 | 149.69305 | 36867 ft | 556 kts | 41° |
| 2026-05-07 20:40 | 41.69990 | 149.76668 | 36862 ft | 555 kts | 41° |
| 2026-05-07 20:41 | 41.75408 | 149.84040 | 36866 ft | 555 kts | 41° |
| 2026-05-07 20:41 | 41.80823 | 149.91426 | 36863 ft | 556 kts | 41° |
| 2026-05-07 20:42 | 41.86245 | 149.98841 | 36867 ft | 557 kts | 41° |
| 2026-05-07 20:42 | 41.91656 | 150.06262 | 36862 ft | 556 kts | 41° |
| 2026-05-07 20:43 | 41.97055 | 150.13683 | 36866 ft | 555 kts | 41° |
| 2026-05-07 20:43 | 42.02454 | 150.21126 | 36872 ft | 556 kts | 41° |
| 2026-05-07 20:44 | 42.07858 | 150.28591 | 36872 ft | 557 kts | 41° |
| 2026-05-07 20:44 | 42.13225 | 150.36028 | 36872 ft | 557 kts | 41° |
| 2026-05-07 20:45 | 42.18620 | 150.43522 | 36871 ft | 557 kts | 41° |
| 2026-05-07 20:45 | 42.24011 | 150.51031 | 36867 ft | 557 kts | 41° |
| 2026-05-07 20:46 | 42.29396 | 150.58549 | 36874 ft | 558 kts | 41° |
| 2026-05-07 20:46 | 42.34799 | 150.66113 | 36873 ft | 559 kts | 41° |
| 2026-05-07 20:47 | 42.40184 | 150.73672 | 36866 ft | 557 kts | 41° |
| 2026-05-07 20:47 | 42.45534 | 150.81202 | 36871 ft | 553 kts | 41° |
| 2026-05-07 20:48 | 42.50865 | 150.88724 | 36887 ft | 554 kts | 41° |
| 2026-05-07 20:48 | 42.56211 | 150.96288 | 36879 ft | 556 kts | 41° |
| 2026-05-07 20:49 | 42.61557 | 151.03871 | 36879 ft | 556 kts | 41° |
| 2026-05-07 20:49 | 42.66886 | 151.11451 | 36882 ft | 554 kts | 41° |
| 2026-05-07 20:50 | 42.72209 | 151.19041 | 36885 ft | 555 kts | 41° |
| 2026-05-07 20:50 | 42.77524 | 151.26642 | 36884 ft | 556 kts | 41° |
| 2026-05-07 20:51 | 42.82851 | 151.34280 | 36884 ft | 555 kts | 41° |
| 2026-05-07 20:51 | 42.88162 | 151.41914 | 36886 ft | 554 kts | 41° |
| 2026-05-07 20:52 | 42.93420 | 151.49493 | 36887 ft | 554 kts | 41° |
| 2026-05-07 20:52 | 42.98718 | 151.57150 | 36890 ft | 555 kts | 41° |
| 2026-05-07 20:53 | 43.04014 | 151.64826 | 36891 ft | 555 kts | 41° |
| 2026-05-07 20:53 | 43.09301 | 151.72508 | 36890 ft | 554 kts | 41° |
| 2026-05-07 20:54 | 43.14534 | 151.80131 | 36897 ft | 554 kts | 41° |
| 2026-05-07 20:54 | 43.19808 | 151.87837 | 36904 ft | 555 kts | 41° |
| 2026-05-07 20:55 | 43.25087 | 151.95569 | 36903 ft | 555 kts | 41° |
| 2026-05-07 20:55 | 43.30349 | 152.03299 | 36904 ft | 554 kts | 41° |
| 2026-05-07 20:56 | 43.35603 | 152.11037 | 36903 ft | 554 kts | 41° |
| 2026-05-07 20:56 | 43.40858 | 152.18799 | 36905 ft | 555 kts | 41° |
| 2026-05-07 20:57 | 43.46107 | 152.26571 | 36904 ft | 554 kts | 41° |
| 2026-05-07 20:57 | 43.51350 | 152.34357 | 36900 ft | 553 kts | 41° |
| 2026-05-07 20:58 | 43.56544 | 152.42092 | 36912 ft | 554 kts | 41° |
| 2026-05-07 20:58 | 43.61778 | 152.49907 | 36917 ft | 555 kts | 41° |
| 2026-05-07 20:59 | 43.67013 | 152.57745 | 36919 ft | 556 kts | 42° |
| 2026-05-07 20:59 | 43.72245 | 152.65601 | 36916 ft | 555 kts | 41° |
| 2026-05-07 21:00 | 43.77469 | 152.73467 | 36915 ft | 555 kts | 42° |
| 2026-05-07 21:00 | 43.82698 | 152.81361 | 36916 ft | 556 kts | 41° |
| 2026-05-07 21:01 | 43.87924 | 152.89274 | 36916 ft | 557 kts | 42° |
| 2026-05-07 21:01 | 43.93155 | 152.97215 | 36914 ft | 557 kts | 41° |
| 2026-05-07 21:02 | 43.98370 | 153.05155 | 36922 ft | 556 kts | 42° |
| 2026-05-07 21:02 | 44.03581 | 153.13111 | 36924 ft | 557 kts | 41° |
| 2026-05-07 21:03 | 44.08797 | 153.21098 | 36923 ft | 558 kts | 42° |
| 2026-05-07 21:03 | 44.14013 | 153.29107 | 36923 ft | 558 kts | 41° |
| 2026-05-07 21:04 | 44.19214 | 153.37115 | 36925 ft | 557 kts | 42° |
| 2026-05-07 21:04 | 44.24411 | 153.45140 | 36929 ft | 558 kts | 42° |
| 2026-05-07 21:05 | 44.29579 | 153.53144 | 36928 ft | 560 kts | 42° |
| 2026-05-07 21:05 | 44.34780 | 153.61223 | 36921 ft | 558 kts | 41° |
| 2026-05-07 21:06 | 44.39959 | 153.69288 | 36925 ft | 557 kts | 42° |
| 2026-05-07 21:06 | 44.45132 | 153.77368 | 36931 ft | 558 kts | 42° |
| 2026-05-07 21:07 | 44.50313 | 153.85484 | 36930 ft | 559 kts | 42° |
| 2026-05-07 21:07 | 44.55490 | 153.93619 | 36926 ft | 558 kts | 41° |
| 2026-05-07 21:08 | 44.60649 | 154.01746 | 36927 ft | 558 kts | 42° |
| 2026-05-07 21:08 | 44.65810 | 154.09902 | 36931 ft | 559 kts | 41° |
| 2026-05-07 21:09 | 44.70976 | 154.18089 | 36930 ft | 560 kts | 42° |
| 2026-05-07 21:09 | 44.76139 | 154.26294 | 36927 ft | 560 kts | 41° |
| 2026-05-07 21:10 | 44.81295 | 154.34513 | 36928 ft | 560 kts | 42° |
| 2026-05-07 21:10 | 44.86456 | 154.42736 | 36928 ft | 562 kts | 44° |
| 2026-05-07 21:11 | 44.91534 | 154.51119 | 36933 ft | 563 kts | 43° |
| 2026-05-07 21:11 | 44.99165 | 154.63714 | 36926 ft | 562 kts | 43° |
| 2026-05-07 21:12 | 45.04212 | 154.72069 | 36927 ft | 562 kts | 42° |
| 2026-05-07 21:12 | 45.09283 | 154.80485 | 36923 ft | 563 kts | 43° |
| 2026-05-07 21:13 | 45.14355 | 154.88930 | 36925 ft | 563 kts | 43° |
| 2026-05-07 21:13 | 45.19429 | 154.97403 | 36931 ft | 563 kts | 42° |
| 2026-05-07 21:14 | 45.24491 | 155.05883 | 36927 ft | 563 kts | 42° |
| 2026-05-07 21:14 | 45.29545 | 155.14372 | 36931 ft | 563 kts | 43° |
| 2026-05-07 21:15 | 45.33777 | 155.21503 | 36929 ft | 564 kts | 42° |
| 2026-05-07 21:15 | 45.38795 | 155.29981 | 36931 ft | 564 kts | 42° |
| 2026-05-07 21:16 | 45.43846 | 155.38542 | 36925 ft | 564 kts | 42° |
| 2026-05-07 21:16 | 45.48915 | 155.47156 | 36924 ft | 564 kts | 42° |
| 2026-05-07 21:17 | 45.53912 | 155.55678 | 36928 ft | 564 kts | 42° |
| 2026-05-07 21:17 | 45.58951 | 155.64293 | 36928 ft | 566 kts | 42° |
| 2026-05-07 21:18 | 45.63984 | 155.72929 | 36923 ft | 565 kts | 42° |
| 2026-05-07 21:18 | 45.69003 | 155.81564 | 36920 ft | 565 kts | 42° |
| 2026-05-07 21:19 | 45.74020 | 155.90227 | 36919 ft | 565 kts | 42° |
| 2026-05-07 21:19 | 45.79036 | 155.98911 | 36916 ft | 566 kts | 42° |
| 2026-05-07 21:20 | 45.84049 | 156.07618 | 36920 ft | 566 kts | 42° |
| 2026-05-07 21:20 | 45.89047 | 156.16326 | 36920 ft | 565 kts | 42° |
| 2026-05-07 21:21 | 45.94037 | 156.25048 | 36919 ft | 565 kts | 42° |
| 2026-05-07 21:21 | 45.99022 | 156.33788 | 36921 ft | 566 kts | 42° |
| 2026-05-07 21:22 | 46.04012 | 156.42565 | 36920 ft | 566 kts | 42° |
| 2026-05-07 21:22 | 46.08989 | 156.51346 | 36918 ft | 566 kts | 42° |
| 2026-05-07 21:23 | 46.13927 | 156.60086 | 36916 ft | 566 kts | 42° |
| 2026-05-07 21:23 | 46.18924 | 156.68957 | 36916 ft | 566 kts | 42° |
| 2026-05-07 21:24 | 46.23854 | 156.77739 | 36914 ft | 567 kts | 42° |
| 2026-05-07 21:24 | 46.28809 | 156.86593 | 36915 ft | 566 kts | 42° |
| 2026-05-07 21:25 | 46.33746 | 156.95444 | 36911 ft | 565 kts | 42° |
| 2026-05-07 21:25 | 46.38678 | 157.04310 | 36917 ft | 566 kts | 42° |
| 2026-05-07 21:26 | 46.43607 | 157.13203 | 36911 ft | 566 kts | 42° |
| 2026-05-07 21:26 | 46.48532 | 157.22117 | 36909 ft | 566 kts | 42° |
| 2026-05-07 21:27 | 46.53445 | 157.31039 | 36905 ft | 565 kts | 42° |
| 2026-05-07 21:27 | 46.58348 | 157.39969 | 36909 ft | 565 kts | 42° |
| 2026-05-07 21:28 | 46.63242 | 157.48911 | 36909 ft | 566 kts | 42° |
| 2026-05-07 21:28 | 46.68137 | 157.57887 | 36911 ft | 566 kts | 42° |
| 2026-05-07 21:29 | 46.73026 | 157.66880 | 36903 ft | 565 kts | 42° |
| 2026-05-07 21:29 | 46.77894 | 157.75859 | 36904 ft | 564 kts | 42° |
| 2026-05-07 21:30 | 46.82751 | 157.84854 | 36907 ft | 565 kts | 42° |
| 2026-05-07 21:30 | 46.87615 | 157.93886 | 36903 ft | 565 kts | 42° |
| 2026-05-07 21:31 | 46.92431 | 158.02863 | 36897 ft | 564 kts | 42° |
| 2026-05-07 21:31 | 46.97261 | 158.11890 | 36898 ft | 563 kts | 42° |
| 2026-05-07 21:32 | 47.02082 | 158.20935 | 36896 ft | 564 kts | 42° |
| 2026-05-07 21:32 | 47.06936 | 158.30068 | 36898 ft | 564 kts | 42° |
| 2026-05-07 21:33 | 47.11713 | 158.39090 | 36894 ft | 563 kts | 42° |
| 2026-05-07 21:33 | 47.16500 | 158.48155 | 36892 ft | 562 kts | 42° |
| 2026-05-07 21:34 | 47.21281 | 158.57243 | 36893 ft | 562 kts | 42° |
| 2026-05-07 21:34 | 47.26060 | 158.66355 | 36894 ft | 562 kts | 42° |
| 2026-05-07 21:35 | 47.30828 | 158.75478 | 36887 ft | 561 kts | 42° |
| 2026-05-07 21:35 | 47.35579 | 158.84597 | 36888 ft | 560 kts | 42° |
| 2026-05-07 21:36 | 47.40324 | 158.93736 | 36884 ft | 561 kts | 42° |
| 2026-05-07 21:36 | 47.45059 | 159.02886 | 36883 ft | 562 kts | 42° |
| 2026-05-07 21:37 | 47.49797 | 159.12073 | 36882 ft | 561 kts | 42° |
| 2026-05-07 21:37 | 47.54510 | 159.21239 | 36880 ft | 560 kts | 43° |
| 2026-05-07 21:38 | 47.59216 | 159.30426 | 36879 ft | 560 kts | 43° |
| 2026-05-07 21:38 | 47.63922 | 159.39643 | 36879 ft | 561 kts | 43° |
| 2026-05-07 21:39 | 47.68621 | 159.48878 | 36874 ft | 560 kts | 43° |
| 2026-05-07 21:39 | 47.73305 | 159.58112 | 36870 ft | 559 kts | 43° |
| 2026-05-07 21:40 | 47.77977 | 159.67355 | 36871 ft | 559 kts | 43° |
| 2026-05-07 21:40 | 47.82650 | 159.76631 | 36873 ft | 561 kts | 43° |
| 2026-05-07 21:41 | 47.87314 | 159.85923 | 36869 ft | 560 kts | 43° |
| 2026-05-07 21:41 | 47.91967 | 159.95224 | 36872 ft | 559 kts | 43° |
| 2026-05-07 21:42 | 47.96609 | 160.04530 | 36862 ft | 559 kts | 43° |
| 2026-05-07 21:42 | 48.01244 | 160.13859 | 36867 ft | 560 kts | 43° |
| 2026-05-07 21:43 | 48.05876 | 160.23213 | 36862 ft | 560 kts | 43° |
| 2026-05-07 21:43 | 48.10500 | 160.32583 | 36866 ft | 559 kts | 43° |
| 2026-05-07 21:44 | 48.15112 | 160.41959 | 36860 ft | 559 kts | 43° |
| 2026-05-07 21:44 | 48.19720 | 160.51363 | 36860 ft | 560 kts | 43° |
| 2026-05-07 21:45 | 48.24295 | 160.60728 | 36859 ft | 560 kts | 43° |
| 2026-05-07 21:45 | 48.28915 | 160.70229 | 36855 ft | 564 kts | 46° |
| 2026-05-07 21:46 | 48.33331 | 160.79849 | 36869 ft | 563 kts | 45° |
| 2026-05-07 21:46 | 48.37779 | 160.89550 | 36861 ft | 564 kts | 45° |
| 2026-05-07 21:47 | 48.42235 | 160.99267 | 36855 ft | 564 kts | 45° |
| 2026-05-07 21:47 | 48.46676 | 161.08986 | 36855 ft | 563 kts | 45° |
| 2026-05-07 21:48 | 48.51116 | 161.18735 | 36858 ft | 564 kts | 45° |
| 2026-05-07 21:48 | 48.55553 | 161.28520 | 36858 ft | 565 kts | 45° |
| 2026-05-07 21:49 | 48.59988 | 161.38328 | 36859 ft | 565 kts | 46° |
| 2026-05-07 21:49 | 48.64405 | 161.48138 | 36859 ft | 564 kts | 46° |
| 2026-05-07 21:50 | 48.68816 | 161.57963 | 36857 ft | 565 kts | 46° |
| 2026-05-07 21:50 | 48.73224 | 161.67823 | 36859 ft | 566 kts | 46° |
| 2026-05-07 21:51 | 48.77623 | 161.77701 | 36863 ft | 566 kts | 46° |
| 2026-05-07 21:51 | 48.82018 | 161.87600 | 36861 ft | 565 kts | 46° |
| 2026-05-07 21:52 | 48.86398 | 161.97506 | 36867 ft | 565 kts | 46° |
| 2026-05-07 21:52 | 48.90773 | 162.07435 | 36864 ft | 566 kts | 46° |
| 2026-05-07 21:53 | 48.95144 | 162.17394 | 36867 ft | 566 kts | 46° |
| 2026-05-07 21:53 | 48.99501 | 162.27355 | 36866 ft | 565 kts | 47° |
| 2026-05-07 21:54 | 49.03813 | 162.37254 | 36866 ft | 564 kts | 47° |
| 2026-05-07 21:54 | 49.08148 | 162.47237 | 36869 ft | 565 kts | 47° |
| 2026-05-07 21:55 | 49.12476 | 162.57249 | 36866 ft | 565 kts | 47° |
| 2026-05-07 21:55 | 49.16796 | 162.67272 | 36866 ft | 564 kts | 47° |
| 2026-05-07 21:56 | 49.21095 | 162.77288 | 36870 ft | 563 kts | 47° |
| 2026-05-07 21:56 | 49.25380 | 162.87309 | 36873 ft | 563 kts | 48° |
| 2026-05-07 21:57 | 49.29658 | 162.97350 | 36873 ft | 563 kts | 48° |
| 2026-05-07 21:57 | 49.33923 | 163.07401 | 36870 ft | 562 kts | 48° |
| 2026-05-07 21:58 | 49.38168 | 163.17437 | 36860 ft | 561 kts | 48° |
| 2026-05-07 21:58 | 49.42406 | 163.27499 | 36868 ft | 560 kts | 49° |
| 2026-05-07 21:59 | 49.46629 | 163.37564 | 36874 ft | 561 kts | 49° |
| 2026-05-07 21:59 | 49.50840 | 163.47635 | 36880 ft | 560 kts | 49° |
| 2026-05-07 22:00 | 49.55037 | 163.57715 | 36874 ft | 558 kts | 49° |
| 2026-05-07 22:00 | 49.59213 | 163.67779 | 36881 ft | 558 kts | 49° |
| 2026-05-07 22:01 | 49.63388 | 163.77882 | 36878 ft | 558 kts | 50° |
| 2026-05-07 22:01 | 49.67548 | 163.87985 | 36874 ft | 557 kts | 50° |
| 2026-05-07 22:02 | 49.71666 | 163.98026 | 36880 ft | 556 kts | 50° |
| 2026-05-07 22:02 | 49.75792 | 164.08122 | 36876 ft | 556 kts | 50° |
| 2026-05-07 22:03 | 49.79912 | 164.18245 | 36878 ft | 556 kts | 50° |
| 2026-05-07 22:03 | 49.84021 | 164.28376 | 36882 ft | 556 kts | 50° |
| 2026-05-07 22:04 | 49.87457 | 164.36884 | 36875 ft | 555 kts | 51° |
| 2026-05-07 22:04 | 49.91508 | 164.46942 | 36857 ft | 550 kts | 48° |
| 2026-05-07 22:05 | 49.95597 | 164.57185 | 36893 ft | 556 kts | 51° |
| 2026-05-07 22:05 | 49.99685 | 164.67388 | 36875 ft | 556 kts | 51° |
| 2026-05-07 22:06 | 50.03743 | 164.77570 | 36866 ft | 553 kts | 52° |
| 2026-05-07 22:06 | 50.07753 | 164.87685 | 36876 ft | 553 kts | 52° |
| 2026-05-07 22:07 | 50.11788 | 164.97901 | 36878 ft | 555 kts | 52° |
| 2026-05-07 22:07 | 50.15823 | 165.08141 | 36863 ft | 553 kts | 51° |
| 2026-05-07 22:08 | 50.19801 | 165.18425 | 36876 ft | 552 kts | 53° |
| 2026-05-07 22:08 | 50.23757 | 165.28693 | 36871 ft | 552 kts | 53° |
| 2026-05-07 22:09 | 50.27697 | 165.38987 | 36884 ft | 552 kts | 53° |
| 2026-05-07 22:09 | 50.31629 | 165.49299 | 36876 ft | 551 kts | 53° |
| 2026-05-07 22:10 | 50.35541 | 165.59597 | 36877 ft | 550 kts | 53° |
| 2026-05-07 22:10 | 50.39435 | 165.69888 | 36870 ft | 549 kts | 53° |
| 2026-05-07 22:11 | 50.43320 | 165.80198 | 36876 ft | 549 kts | 54° |
| 2026-05-07 22:11 | 50.47197 | 165.90526 | 36875 ft | 549 kts | 54° |
| 2026-05-07 22:12 | 50.51054 | 166.00844 | 36872 ft | 547 kts | 54° |
| 2026-05-07 22:12 | 50.54893 | 166.11154 | 36877 ft | 546 kts | 54° |
| 2026-05-07 22:13 | 50.58723 | 166.21481 | 36876 ft | 546 kts | 54° |
| 2026-05-07 22:13 | 50.62540 | 166.31814 | 36874 ft | 546 kts | 54° |
| 2026-05-07 22:14 | 50.66342 | 166.42153 | 36875 ft | 544 kts | 55° |
| 2026-05-07 22:14 | 50.70125 | 166.52473 | 36876 ft | 543 kts | 55° |
| 2026-05-07 22:15 | 50.73894 | 166.62802 | 36868 ft | 543 kts | 55° |
| 2026-05-07 22:15 | 50.77653 | 166.73144 | 36872 ft | 543 kts | 55° |
| 2026-05-07 22:16 | 50.81400 | 166.83494 | 36865 ft | 541 kts | 56° |
| 2026-05-07 22:16 | 50.85125 | 166.93825 | 36870 ft | 540 kts | 56° |
| 2026-05-07 22:17 | 50.88806 | 167.04075 | 36868 ft | 539 kts | 56° |
| 2026-05-07 22:17 | 50.92503 | 167.14412 | 36869 ft | 539 kts | 56° |
| 2026-05-07 22:18 | 50.98031 | 167.29949 | 36864 ft | 538 kts | 56° |
| 2026-05-07 22:19 | 51.01692 | 167.40289 | 36864 ft | 537 kts | 56° |
| 2026-05-07 22:19 | 51.05339 | 167.50632 | 36865 ft | 536 kts | 57° |
| 2026-05-07 22:20 | 51.08974 | 167.60984 | 36863 ft | 537 kts | 57° |
| 2026-05-07 22:20 | 51.12604 | 167.71364 | 36859 ft | 536 kts | 57° |
| 2026-05-07 22:21 | 51.16213 | 167.81726 | 36861 ft | 534 kts | 57° |
| 2026-05-07 22:21 | 51.19805 | 167.92079 | 36862 ft | 534 kts | 57° |
| 2026-05-07 22:22 | 51.23387 | 168.02451 | 36863 ft | 534 kts | 57° |
| 2026-05-07 22:22 | 51.26960 | 168.12836 | 36863 ft | 533 kts | 58° |
| 2026-05-07 22:23 | 51.30515 | 168.23213 | 36857 ft | 532 kts | 58° |
| 2026-05-07 22:23 | 51.34052 | 168.33578 | 36860 ft | 531 kts | 58° |
| 2026-05-07 22:24 | 51.37582 | 168.43970 | 36860 ft | 532 kts | 58° |
| 2026-05-07 22:24 | 51.41107 | 168.54383 | 36862 ft | 532 kts | 58° |
| 2026-05-07 22:25 | 51.44617 | 168.64803 | 36859 ft | 531 kts | 58° |
| 2026-05-07 22:25 | 51.48112 | 168.75216 | 36859 ft | 530 kts | 59° |
| 2026-05-07 22:26 | 51.51597 | 168.85644 | 36861 ft | 530 kts | 59° |
| 2026-05-07 22:26 | 51.55073 | 168.96092 | 36864 ft | 530 kts | 59° |
| 2026-05-07 22:27 | 51.58537 | 169.06543 | 36863 ft | 529 kts | 59° |
| 2026-05-07 22:27 | 51.61981 | 169.16983 | 36860 ft | 528 kts | 59° |
| 2026-05-07 22:28 | 51.65422 | 169.27450 | 36865 ft | 528 kts | 59° |
| 2026-05-07 22:28 | 51.68847 | 169.37922 | 36862 ft | 528 kts | 59° |
| 2026-05-07 22:29 | 51.72260 | 169.48395 | 36864 ft | 527 kts | 59° |
| 2026-05-07 22:29 | 51.75656 | 169.58863 | 36867 ft | 526 kts | 60° |
| 2026-05-07 22:30 | 51.79037 | 169.69324 | 36863 ft | 525 kts | 60° |
| 2026-05-07 22:30 | 51.82385 | 169.79734 | 36862 ft | 526 kts | 60° |
| 2026-05-07 22:31 | 51.85770 | 169.90299 | 36868 ft | 525 kts | 60° |
| 2026-05-07 22:31 | 51.89095 | 170.00725 | 36864 ft | 524 kts | 60° |
| 2026-05-07 22:32 | 51.92427 | 170.11214 | 36864 ft | 524 kts | 60° |
| 2026-05-07 22:32 | 51.95748 | 170.21715 | 36862 ft | 524 kts | 60° |
| 2026-05-07 22:33 | 51.99068 | 170.32254 | 36866 ft | 525 kts | 60° |
| 2026-05-07 22:33 | 52.02380 | 170.42821 | 36866 ft | 524 kts | 61° |
| 2026-05-07 22:34 | 52.05669 | 170.53355 | 36862 ft | 522 kts | 61° |
| 2026-05-07 22:34 | 52.08945 | 170.63896 | 36866 ft | 522 kts | 61° |
| 2026-05-07 22:35 | 52.12506 | 170.74142 | 36881 ft | 519 kts | 53° |
| 2026-05-07 22:35 | 52.17024 | 170.83226 | 36889 ft | 516 kts | 46° |
| 2026-05-07 22:36 | 52.21705 | 170.92116 | 36865 ft | 516 kts | 46° |
| 2026-05-07 22:36 | 52.26382 | 171.00981 | 36855 ft | 514 kts | 46° |
| 2026-05-07 22:37 | 52.31034 | 171.09830 | 36866 ft | 513 kts | 46° |
| 2026-05-07 22:37 | 52.35688 | 171.18717 | 36862 ft | 515 kts | 47° |
| 2026-05-07 22:38 | 52.40334 | 171.27622 | 36864 ft | 514 kts | 47° |
| 2026-05-07 22:38 | 52.44969 | 171.36533 | 36860 ft | 513 kts | 47° |
| 2026-05-07 22:39 | 52.49582 | 171.45439 | 36865 ft | 512 kts | 47° |
| 2026-05-07 22:39 | 52.54189 | 171.54361 | 36869 ft | 513 kts | 47° |
| 2026-05-07 22:40 | 52.58799 | 171.63323 | 36865 ft | 513 kts | 47° |
| 2026-05-07 22:40 | 52.63393 | 171.72284 | 36866 ft | 512 kts | 47° |
| 2026-05-07 22:41 | 52.67942 | 171.81188 | 36866 ft | 511 kts | 48° |
| 2026-05-07 22:41 | 52.72506 | 171.90156 | 36868 ft | 510 kts | 48° |
| 2026-05-07 22:42 | 52.77063 | 171.99142 | 36870 ft | 510 kts | 48° |
| 2026-05-07 22:42 | 52.81614 | 172.08147 | 36869 ft | 510 kts | 48° |
| 2026-05-07 22:43 | 52.86146 | 172.17148 | 36866 ft | 509 kts | 49° |
| 2026-05-07 22:43 | 52.90668 | 172.26158 | 36867 ft | 508 kts | 49° |
| 2026-05-07 22:44 | 52.95173 | 172.35171 | 36869 ft | 508 kts | 49° |
| 2026-05-07 22:44 | 52.99679 | 172.44215 | 36869 ft | 508 kts | 49° |
| 2026-05-07 22:45 | 53.04166 | 172.53257 | 36869 ft | 507 kts | 49° |
| 2026-05-07 22:45 | 53.08640 | 172.62301 | 36870 ft | 506 kts | 49° |
| 2026-05-07 22:46 | 53.13101 | 172.71356 | 36873 ft | 506 kts | 49° |
| 2026-05-07 22:46 | 53.17527 | 172.80369 | 36871 ft | 506 kts | 50° |
| 2026-05-07 22:47 | 53.22001 | 172.89514 | 36870 ft | 505 kts | 50° |
| 2026-05-07 22:47 | 53.26395 | 172.98529 | 36869 ft | 504 kts | 50° |
| 2026-05-07 22:48 | 53.30807 | 173.07613 | 36874 ft | 504 kts | 50° |
| 2026-05-07 22:48 | 53.35221 | 173.16733 | 36872 ft | 504 kts | 50° |
| 2026-05-07 22:49 | 53.39616 | 173.25847 | 36870 ft | 503 kts | 51° |
| 2026-05-07 22:49 | 53.43998 | 173.34970 | 36870 ft | 502 kts | 51° |
| 2026-05-07 22:50 | 53.48365 | 173.44091 | 36871 ft | 502 kts | 51° |
| 2026-05-07 22:50 | 53.52720 | 173.53255 | 36872 ft | 502 kts | 52° |
| 2026-05-07 22:51 | 53.55947 | 173.61317 | 36885 ft | 500 kts | 57° |
| 2026-05-07 22:51 | 53.59724 | 173.71180 | 36874 ft | 501 kts | 58° |
| 2026-05-07 22:52 | 53.63470 | 173.81063 | 36872 ft | 500 kts | 58° |
| 2026-05-07 22:52 | 53.67200 | 173.90934 | 36869 ft | 498 kts | 58° |
| 2026-05-07 22:53 | 53.70916 | 174.00798 | 36874 ft | 498 kts | 58° |
| 2026-05-07 22:53 | 53.74624 | 174.10684 | 36880 ft | 499 kts | 58° |
| 2026-05-07 22:54 | 53.78304 | 174.20532 | 36873 ft | 498 kts | 58° |
| 2026-05-07 22:54 | 53.81992 | 174.30441 | 36869 ft | 497 kts | 58° |
| 2026-05-07 22:55 | 53.85665 | 174.40350 | 36871 ft | 496 kts | 58° |
| 2026-05-07 22:55 | 53.89326 | 174.50266 | 36873 ft | 496 kts | 59° |
| 2026-05-07 22:56 | 53.92982 | 174.60205 | 36874 ft | 497 kts | 59° |
| 2026-05-07 22:56 | 53.96627 | 174.70157 | 36869 ft | 496 kts | 59° |
| 2026-05-07 22:57 | 54.00256 | 174.80102 | 36874 ft | 494 kts | 59° |
| 2026-05-07 22:57 | 54.03868 | 174.90043 | 36876 ft | 494 kts | 59° |
| 2026-05-07 22:58 | 54.07473 | 175.00006 | 36880 ft | 494 kts | 59° |
| 2026-05-07 22:58 | 54.11068 | 175.09978 | 36877 ft | 494 kts | 60° |
| 2026-05-07 22:59 | 54.14650 | 175.19956 | 36874 ft | 492 kts | 60° |
| 2026-05-07 22:59 | 54.18213 | 175.29919 | 36880 ft | 492 kts | 60° |
| 2026-05-07 23:00 | 54.21768 | 175.39902 | 36877 ft | 492 kts | 60° |
| 2026-05-07 23:00 | 54.25317 | 175.49907 | 36893 ft | 492 kts | 60° |
| 2026-05-07 23:01 | 54.28849 | 175.59907 | 36876 ft | 490 kts | 60° |
| 2026-05-07 23:01 | 54.32367 | 175.69904 | 36885 ft | 490 kts | 61° |
| 2026-05-07 23:02 | 54.35875 | 175.79919 | 36882 ft | 490 kts | 61° |
| 2026-05-07 23:02 | 54.39375 | 175.89947 | 36879 ft | 490 kts | 61° |
| 2026-05-07 23:03 | 54.42863 | 175.99985 | 36880 ft | 489 kts | 61° |
| 2026-05-07 23:03 | 54.46331 | 176.10001 | 36879 ft | 488 kts | 62° |
| 2026-05-07 23:04 | 54.49791 | 176.20041 | 36890 ft | 488 kts | 62° |
| 2026-05-07 23:04 | 54.53241 | 176.30089 | 36881 ft | 488 kts | 62° |
| 2026-05-07 23:05 | 54.56679 | 176.40143 | 36886 ft | 487 kts | 62° |
| 2026-05-07 23:05 | 54.60083 | 176.50142 | 36890 ft | 486 kts | 62° |
| 2026-05-07 23:06 | 54.63494 | 176.60201 | 36890 ft | 485 kts | 62° |
| 2026-05-07 23:06 | 54.66893 | 176.70265 | 36903 ft | 485 kts | 63° |
| 2026-05-07 23:07 | 54.70285 | 176.80348 | 36887 ft | 485 kts | 63° |
| 2026-05-07 23:07 | 54.73658 | 176.90423 | 36892 ft | 483 kts | 63° |
| 2026-05-07 23:08 | 54.76995 | 177.00424 | 36888 ft | 483 kts | 63° |
| 2026-05-07 23:08 | 54.80363 | 177.10565 | 36894 ft | 482 kts | 63° |
| 2026-05-07 23:09 | 54.83704 | 177.20664 | 36893 ft | 482 kts | 64° |
| 2026-05-07 23:09 | 54.87026 | 177.30750 | 36890 ft | 481 kts | 64° |
| 2026-05-07 23:10 | 54.90336 | 177.40837 | 36911 ft | 480 kts | 64° |
| 2026-05-07 23:10 | 54.93633 | 177.50929 | 36894 ft | 480 kts | 64° |
| 2026-05-07 23:11 | 54.96919 | 177.61033 | 36893 ft | 479 kts | 64° |
| 2026-05-07 23:11 | 55.00188 | 177.71121 | 36893 ft | 478 kts | 65° |
| 2026-05-07 23:12 | 55.03442 | 177.81210 | 36896 ft | 478 kts | 65° |
| 2026-05-07 23:12 | 55.06696 | 177.91336 | 36946 ft | 479 kts | 65° |
| 2026-05-07 23:13 | 55.09945 | 178.01496 | 36899 ft | 478 kts | 65° |
| 2026-05-07 23:13 | 55.13164 | 178.11601 | 36872 ft | 474 kts | 65° |
| 2026-05-07 23:14 | 55.16336 | 178.21600 | 36890 ft | 474 kts | 65° |
| 2026-05-07 23:14 | 55.19534 | 178.31722 | 36900 ft | 477 kts | 65° |
| 2026-05-07 23:15 | 55.22731 | 178.41886 | 36902 ft | 476 kts | 65° |
| 2026-05-07 23:15 | 55.25909 | 178.52032 | 36902 ft | 474 kts | 66° |
| 2026-05-07 23:16 | 55.29071 | 178.62170 | 36907 ft | 474 kts | 66° |
| 2026-05-07 23:16 | 55.32219 | 178.72339 | 36913 ft | 475 kts | 65° |
| 2026-05-07 23:17 | 55.35392 | 178.82507 | 36910 ft | 474 kts | 66° |
| 2026-05-07 23:17 | 55.38543 | 178.92685 | 36911 ft | 473 kts | 66° |
| 2026-05-07 23:18 | 55.41682 | 179.02866 | 36920 ft | 473 kts | 66° |
| 2026-05-07 23:18 | 55.44814 | 179.13069 | 36949 ft | 474 kts | 66° |
| 2026-05-07 23:19 | 55.47947 | 179.23314 | 36917 ft | 474 kts | 66° |
| 2026-05-07 23:19 | 55.51062 | 179.33550 | 36925 ft | 472 kts | 66° |
| 2026-05-07 23:20 | 55.54160 | 179.43774 | 36922 ft | 473 kts | 66° |
| 2026-05-07 23:20 | 55.57256 | 179.54030 | 36931 ft | 474 kts | 66° |
| 2026-05-07 23:21 | 55.60348 | 179.64324 | 36936 ft | 473 kts | 66° |
| 2026-05-07 23:21 | 55.63420 | 179.74592 | 36931 ft | 472 kts | 66° |
| 2026-05-07 23:22 | 55.66480 | 179.84866 | 36941 ft | 472 kts | 66° |
| 2026-05-07 23:22 | 55.69532 | 179.95156 | 36947 ft | 472 kts | 66° |
| 2026-05-07 23:23 | 55.72580 | -179.94520 | 36950 ft | 472 kts | 66° |
| 2026-05-07 23:23 | 55.75609 | -179.84214 | 36945 ft | 470 kts | 66° |
| 2026-05-07 23:24 | 55.78624 | -179.73912 | 36947 ft | 470 kts | 67° |
| 2026-05-07 23:24 | 55.81638 | -179.63565 | 36969 ft | 471 kts | 66° |
| 2026-05-07 23:25 | 55.84642 | -179.53214 | 36956 ft | 471 kts | 67° |
| 2026-05-07 23:25 | 55.87634 | -179.42851 | 36954 ft | 469 kts | 67° |
| 2026-05-07 23:26 | 55.90608 | -179.32506 | 36966 ft | 470 kts | 67° |
| 2026-05-07 23:26 | 55.93580 | -179.22122 | 36964 ft | 470 kts | 67° |
| 2026-05-07 23:27 | 55.98024 | -179.06510 | 36978 ft | 470 kts | 67° |
| 2026-05-07 23:27 | 56.00948 | -178.96179 | 36976 ft | 469 kts | 67° |
| 2026-05-07 23:28 | 56.03881 | -178.85769 | 36976 ft | 469 kts | 67° |
| 2026-05-07 23:28 | 56.06810 | -178.75329 | 36979 ft | 470 kts | 67° |
| 2026-05-07 23:29 | 56.09731 | -178.64869 | 36988 ft | 469 kts | 67° |
| 2026-05-07 23:29 | 56.12637 | -178.54412 | 36973 ft | 469 kts | 67° |
| 2026-05-07 23:30 | 56.15533 | -178.43944 | 36990 ft | 469 kts | 67° |
| 2026-05-07 23:30 | 56.18427 | -178.33442 | 36990 ft | 470 kts | 67° |
| 2026-05-07 23:31 | 56.21309 | -178.22930 | 36996 ft | 469 kts | 67° |
| 2026-05-07 23:31 | 56.24185 | -178.12392 | 36998 ft | 469 kts | 67° |
| 2026-05-07 23:32 | 56.27045 | -178.01860 | 37000 ft | 469 kts | 67° |
| 2026-05-07 23:32 | 56.29902 | -177.91298 | 37002 ft | 470 kts | 67° |
| 2026-05-07 23:33 | 56.32752 | -177.80707 | 37009 ft | 470 kts | 67° |
| 2026-05-07 23:33 | 56.35592 | -177.70108 | 37007 ft | 469 kts | 67° |
| 2026-05-07 23:34 | 56.38422 | -177.59495 | 37010 ft | 469 kts | 67° |
| 2026-05-07 23:34 | 56.41242 | -177.48868 | 37016 ft | 470 kts | 67° |
| 2026-05-07 23:35 | 56.44059 | -177.38204 | 37013 ft | 470 kts | 67° |
| 2026-05-07 23:35 | 56.46847 | -177.27600 | 37017 ft | 470 kts | 67° |
| 2026-05-07 23:36 | 56.49642 | -177.16920 | 37020 ft | 470 kts | 67° |
| 2026-05-07 23:36 | 56.52428 | -177.06220 | 37024 ft | 470 kts | 67° |
| 2026-05-07 23:37 | 56.55210 | -176.95489 | 37024 ft | 471 kts | 67° |
| 2026-05-07 23:37 | 56.57975 | -176.84739 | 37021 ft | 470 kts | 67° |
| 2026-05-07 23:38 | 56.60757 | -176.74024 | 37033 ft | 469 kts | 68° |
| 2026-05-07 23:38 | 56.63494 | -176.63259 | 37034 ft | 470 kts | 68° |
| 2026-05-07 23:39 | 56.65786 | -176.54225 | 37036 ft | 470 kts | 67° |
| 2026-05-07 23:39 | 56.68508 | -176.43455 | 37037 ft | 469 kts | 67° |
| 2026-05-07 23:40 | 56.71224 | -176.32682 | 37024 ft | 468 kts | 67° |
| 2026-05-07 23:40 | 56.73898 | -176.21971 | 37043 ft | 468 kts | 67° |
| 2026-05-07 23:41 | 56.76613 | -176.11177 | 37051 ft | 469 kts | 68° |
| 2026-05-07 23:41 | 56.79273 | -176.00339 | 37040 ft | 468 kts | 66° |
| 2026-05-07 23:42 | 56.81965 | -175.89545 | 37043 ft | 467 kts | 67° |
| 2026-05-07 23:42 | 56.84593 | -175.78684 | 37047 ft | 467 kts | 67° |
| 2026-05-07 23:43 | 56.87282 | -175.67878 | 37058 ft | 467 kts | 68° |
| 2026-05-07 23:43 | 56.89889 | -175.56982 | 37055 ft | 468 kts | 67° |
| 2026-05-07 23:44 | 56.92517 | -175.46102 | 37053 ft | 467 kts | 67° |
| 2026-05-07 23:44 | 56.95129 | -175.35227 | 37059 ft | 466 kts | 67° |
| 2026-05-07 23:45 | 56.97730 | -175.24334 | 37064 ft | 467 kts | 67° |
| 2026-05-07 23:45 | 57.00323 | -175.13418 | 37060 ft | 467 kts | 67° |
| 2026-05-07 23:46 | 57.02904 | -175.02498 | 37065 ft | 466 kts | 68° |
| 2026-05-07 23:46 | 57.05483 | -174.91585 | 37067 ft | 466 kts | 67° |
| 2026-05-07 23:47 | 57.08033 | -174.80635 | 37073 ft | 466 kts | 67° |
| 2026-05-07 23:47 | 57.10563 | -174.69770 | 37072 ft | 465 kts | 67° |
| 2026-05-07 23:48 | 57.13101 | -174.58819 | 37074 ft | 465 kts | 67° |
| 2026-05-07 23:48 | 57.15627 | -174.47853 | 37077 ft | 465 kts | 67° |
| 2026-05-07 23:49 | 57.18142 | -174.36883 | 37079 ft | 464 kts | 68° |
| 2026-05-07 23:49 | 57.20647 | -174.25917 | 37080 ft | 464 kts | 68° |
| 2026-05-07 23:50 | 57.23134 | -174.14939 | 37085 ft | 464 kts | 68° |
| 2026-05-07 23:50 | 57.25618 | -174.03943 | 37086 ft | 463 kts | 68° |
| 2026-05-07 23:51 | 57.28075 | -173.92956 | 37093 ft | 462 kts | 68° |
| 2026-05-07 23:51 | 57.30549 | -173.81976 | 37092 ft | 463 kts | 69° |
| 2026-05-07 23:52 | 57.32965 | -173.70936 | 37099 ft | 463 kts | 69° |
| 2026-05-07 23:52 | 57.35465 | -173.59955 | 37094 ft | 462 kts | 67° |
| 2026-05-07 23:53 | 57.37971 | -173.48983 | 37093 ft | 463 kts | 68° |
| 2026-05-07 23:53 | 57.40463 | -173.37975 | 37101 ft | 463 kts | 68° |
| 2026-05-07 23:54 | 57.42925 | -173.26942 | 37095 ft | 463 kts | 68° |
| 2026-05-07 23:54 | 57.45384 | -173.15905 | 37099 ft | 463 kts | 67° |
| 2026-05-07 23:55 | 57.47848 | -173.04850 | 37108 ft | 463 kts | 69° |
| 2026-05-07 23:55 | 57.50308 | -172.93785 | 37110 ft | 463 kts | 68° |
| 2026-05-07 23:56 | 57.52722 | -172.82664 | 37102 ft | 463 kts | 68° |
| 2026-05-07 23:56 | 57.55152 | -172.71567 | 37113 ft | 463 kts | 68° |
| 2026-05-07 23:57 | 57.57564 | -172.60548 | 37113 ft | 462 kts | 68° |
| 2026-05-07 23:57 | 57.59949 | -172.49431 | 37114 ft | 462 kts | 69° |
| 2026-05-07 23:58 | 57.62363 | -172.38295 | 37119 ft | 463 kts | 69° |
| 2026-05-07 23:58 | 57.64743 | -172.27126 | 37114 ft | 464 kts | 68° |
| 2026-05-07 23:59 | 57.67137 | -172.15945 | 37126 ft | 463 kts | 68° |
| 2026-05-07 23:59 | 57.69483 | -172.04721 | 37116 ft | 464 kts | 67° |
| 2026-05-08 00:00 | 57.71843 | -171.93504 | 37116 ft | 464 kts | 67° |
| 2026-05-08 00:00 | 57.74198 | -171.82275 | 37122 ft | 464 kts | 69° |
| 2026-05-08 00:01 | 57.76564 | -171.71032 | 37124 ft | 464 kts | 68° |
| 2026-05-08 00:01 | 57.78887 | -171.59742 | 37117 ft | 464 kts | 68° |
| 2026-05-08 00:02 | 57.81204 | -171.48443 | 37121 ft | 464 kts | 69° |
| 2026-05-08 00:02 | 57.83535 | -171.37149 | 37120 ft | 465 kts | 68° |
| 2026-05-08 00:03 | 57.85823 | -171.25791 | 37125 ft | 465 kts | 69° |
| 2026-05-08 00:03 | 57.88148 | -171.14469 | 37122 ft | 465 kts | 69° |
| 2026-05-08 00:04 | 57.90425 | -171.03080 | 37116 ft | 465 kts | 69° |
| 2026-05-08 00:04 | 57.92720 | -170.91711 | 37131 ft | 465 kts | 69° |
| 2026-05-08 00:05 | 57.94924 | -170.80248 | 37134 ft | 466 kts | 70° |
| 2026-05-08 00:05 | 57.97354 | -170.68942 | 37136 ft | 466 kts | 68° |
| 2026-05-08 00:06 | 57.99784 | -170.57630 | 37125 ft | 466 kts | 67° |
| 2026-05-08 00:06 | 58.02199 | -170.46377 | 37129 ft | 466 kts | 68° |
| 2026-05-08 00:07 | 58.04635 | -170.34947 | 37127 ft | 466 kts | 68° |
| 2026-05-08 00:07 | 58.07024 | -170.23669 | 37127 ft | 467 kts | 68° |
| 2026-05-08 00:08 | 58.09431 | -170.12244 | 37131 ft | 467 kts | 68° |
| 2026-05-08 00:08 | 58.11825 | -170.00815 | 37127 ft | 467 kts | 68° |
| 2026-05-08 00:09 | 58.14208 | -169.89376 | 37130 ft | 467 kts | 68° |
| 2026-05-08 00:09 | 58.16581 | -169.77920 | 37129 ft | 468 kts | 68° |
| 2026-05-08 00:10 | 58.18946 | -169.66438 | 37129 ft | 468 kts | 68° |
| 2026-05-08 00:10 | 58.21301 | -169.54938 | 37126 ft | 468 kts | 68° |
| 2026-05-08 00:11 | 58.23645 | -169.43427 | 37129 ft | 468 kts | 68° |
| 2026-05-08 00:11 | 58.25982 | -169.31887 | 37129 ft | 468 kts | 68° |
| 2026-05-08 00:12 | 58.28308 | -169.20326 | 37131 ft | 468 kts | 68° |
| 2026-05-08 00:12 | 58.30623 | -169.08760 | 37131 ft | 468 kts | 68° |
| 2026-05-08 00:13 | 58.32926 | -168.97187 | 37128 ft | 468 kts | 68° |
| 2026-05-08 00:13 | 58.35223 | -168.85575 | 37127 ft | 469 kts | 69° |
| 2026-05-08 00:14 | 58.37511 | -168.73939 | 37126 ft | 469 kts | 69° |
| 2026-05-08 00:14 | 58.39785 | -168.62303 | 37126 ft | 468 kts | 69° |
| 2026-05-08 00:15 | 58.42050 | -168.50652 | 37124 ft | 468 kts | 69° |
| 2026-05-08 00:15 | 58.44302 | -168.38986 | 37125 ft | 469 kts | 69° |
| 2026-05-08 00:16 | 58.46535 | -168.27362 | 37127 ft | 469 kts | 69° |
| 2026-05-08 00:16 | 58.48770 | -168.15649 | 37124 ft | 469 kts | 69° |
| 2026-05-08 00:17 | 58.50993 | -168.03932 | 37125 ft | 468 kts | 69° |
| 2026-05-08 00:17 | 58.53204 | -167.92208 | 37127 ft | 469 kts | 69° |
| 2026-05-08 00:18 | 58.55409 | -167.80444 | 37126 ft | 470 kts | 69° |
| 2026-05-08 00:18 | 58.57605 | -167.68648 | 37124 ft | 470 kts | 69° |
| 2026-05-08 00:19 | 58.59787 | -167.56865 | 37126 ft | 469 kts | 69° |
| 2026-05-08 00:19 | 58.61957 | -167.45066 | 37127 ft | 470 kts | 69° |
| 2026-05-08 00:20 | 58.64122 | -167.33227 | 37117 ft | 470 kts | 69° |
| 2026-05-08 00:20 | 58.66277 | -167.21362 | 37111 ft | 470 kts | 69° |
| 2026-05-08 00:21 | 58.68417 | -167.09514 | 37123 ft | 470 kts | 70° |
| 2026-05-08 00:21 | 58.70542 | -166.97625 | 37119 ft | 470 kts | 69° |
| 2026-05-08 00:22 | 58.72713 | -166.85740 | 37115 ft | 471 kts | 69° |
| 2026-05-08 00:22 | 58.74863 | -166.73840 | 37120 ft | 471 kts | 69° |
| 2026-05-08 00:23 | 58.76996 | -166.61939 | 37116 ft | 470 kts | 69° |
| 2026-05-08 00:23 | 58.79126 | -166.49996 | 37119 ft | 471 kts | 70° |
| 2026-05-08 00:24 | 58.81246 | -166.38023 | 37112 ft | 472 kts | 70° |
| 2026-05-08 00:24 | 58.83356 | -166.26028 | 37116 ft | 471 kts | 70° |
| 2026-05-08 00:25 | 58.85451 | -166.14046 | 37115 ft | 471 kts | 70° |
| 2026-05-08 00:25 | 58.87523 | -166.02112 | 37120 ft | 472 kts | 70° |
| 2026-05-08 00:26 | 58.89610 | -165.90070 | 37117 ft | 473 kts | 70° |
| 2026-05-08 00:26 | 58.91356 | -165.79950 | 37110 ft | 473 kts | 70° |
| 2026-05-08 00:27 | 58.93766 | -165.65928 | 37112 ft | 472 kts | 70° |
| 2026-05-08 00:27 | 58.95825 | -165.53851 | 37117 ft | 473 kts | 70° |
| 2026-05-08 00:28 | 58.97545 | -165.43700 | 37111 ft | 474 kts | 70° |
| 2026-05-08 00:28 | 58.99578 | -165.31631 | 37105 ft | 474 kts | 70° |
| 2026-05-08 00:29 | 59.01611 | -165.19476 | 37102 ft | 473 kts | 70° |
| 2026-05-08 00:29 | 59.03631 | -165.07322 | 37104 ft | 474 kts | 70° |
| 2026-05-08 00:30 | 59.05644 | -164.95116 | 37104 ft | 475 kts | 70° |
| 2026-05-08 00:30 | 59.07651 | -164.82881 | 37098 ft | 475 kts | 70° |
| 2026-05-08 00:31 | 59.09643 | -164.70639 | 37095 ft | 475 kts | 71° |
| 2026-05-08 00:31 | 59.11621 | -164.58398 | 37097 ft | 475 kts | 71° |
| 2026-05-08 00:32 | 59.13595 | -164.46102 | 37095 ft | 476 kts | 71° |
| 2026-05-08 00:32 | 59.15560 | -164.33769 | 37094 ft | 477 kts | 71° |
| 2026-05-08 00:33 | 59.17510 | -164.21448 | 37090 ft | 476 kts | 71° |
| 2026-05-08 00:33 | 59.19452 | -164.09088 | 37088 ft | 476 kts | 71° |
| 2026-05-08 00:34 | 59.21383 | -163.96710 | 37086 ft | 477 kts | 71° |
| 2026-05-08 00:34 | 59.23305 | -163.84297 | 37083 ft | 478 kts | 71° |
| 2026-05-08 00:35 | 59.25205 | -163.71940 | 37081 ft | 478 kts | 71° |
| 2026-05-08 00:35 | 59.27103 | -163.59500 | 37082 ft | 478 kts | 71° |
| 2026-05-08 00:36 | 59.28993 | -163.47034 | 37082 ft | 479 kts | 72° |
| 2026-05-08 00:36 | 59.30873 | -163.34526 | 37079 ft | 479 kts | 72° |
| 2026-05-08 00:37 | 59.32744 | -163.21990 | 37078 ft | 479 kts | 72° |
| 2026-05-08 00:38 | 59.35524 | -163.03183 | 37073 ft | 479 kts | 72° |
| 2026-05-08 00:38 | 59.37365 | -162.90616 | 37069 ft | 481 kts | 72° |
| 2026-05-08 00:39 | 59.39202 | -162.77976 | 37057 ft | 482 kts | 72° |
| 2026-05-08 00:39 | 59.41026 | -162.65329 | 37070 ft | 481 kts | 72° |
| 2026-05-08 00:40 | 59.42834 | -162.52683 | 37068 ft | 482 kts | 72° |
| 2026-05-08 00:40 | 59.44639 | -162.39974 | 37058 ft | 483 kts | 73° |
| 2026-05-08 00:41 | 59.46547 | -162.27313 | 37075 ft | 482 kts | 69° |
| 2026-05-08 00:41 | 59.48672 | -162.14810 | 37059 ft | 482 kts | 70° |
| 2026-05-08 00:42 | 59.50787 | -162.02273 | 37058 ft | 482 kts | 70° |
| 2026-05-08 00:42 | 59.52881 | -161.89714 | 37059 ft | 483 kts | 70° |
| 2026-05-08 00:43 | 59.54969 | -161.77111 | 37062 ft | 484 kts | 70° |
| 2026-05-08 00:43 | 59.57047 | -161.64472 | 37062 ft | 485 kts | 70° |
| 2026-05-08 00:44 | 59.59116 | -161.51810 | 37069 ft | 485 kts | 70° |
| 2026-05-08 00:44 | 59.61173 | -161.39124 | 37061 ft | 485 kts | 70° |
| 2026-05-08 00:45 | 59.63220 | -161.26409 | 37058 ft | 486 kts | 70° |
| 2026-05-08 00:45 | 59.65258 | -161.13655 | 37049 ft | 487 kts | 70° |
| 2026-05-08 00:46 | 59.67289 | -161.00854 | 37042 ft | 487 kts | 71° |
| 2026-05-08 00:46 | 59.69304 | -160.88064 | 37041 ft | 487 kts | 71° |
| 2026-05-08 00:47 | 59.71310 | -160.75223 | 37046 ft | 489 kts | 71° |
| 2026-05-08 00:47 | 59.73313 | -160.62325 | 37043 ft | 490 kts | 71° |
| 2026-05-08 00:48 | 59.75300 | -160.49418 | 37046 ft | 490 kts | 71° |
| 2026-05-08 00:48 | 59.77278 | -160.36476 | 37041 ft | 490 kts | 71° |
| 2026-05-08 00:49 | 59.79243 | -160.23522 | 37042 ft | 491 kts | 71° |
| 2026-05-08 00:49 | 59.81188 | -160.10591 | 37043 ft | 492 kts | 71° |
| 2026-05-08 00:50 | 59.83140 | -159.97535 | 37039 ft | 493 kts | 72° |
| 2026-05-08 00:50 | 59.85075 | -159.84479 | 37031 ft | 493 kts | 72° |
| 2026-05-08 00:51 | 59.86998 | -159.71386 | 37041 ft | 494 kts | 72° |
| 2026-05-08 00:51 | 59.88919 | -159.58233 | 37039 ft | 495 kts | 72° |
| 2026-05-08 00:52 | 59.90827 | -159.45044 | 37046 ft | 495 kts | 72° |
| 2026-05-08 00:52 | 59.92722 | -159.31838 | 37041 ft | 495 kts | 72° |
| 2026-05-08 00:53 | 59.94607 | -159.18603 | 37039 ft | 497 kts | 72° |
| 2026-05-08 00:53 | 59.96482 | -159.05325 | 37028 ft | 498 kts | 72° |
| 2026-05-08 00:54 | 59.98347 | -158.92005 | 37031 ft | 498 kts | 73° |
| 2026-05-08 00:54 | 60.00199 | -158.78665 | 37021 ft | 498 kts | 73° |
| 2026-05-08 00:55 | 60.02038 | -158.65314 | 37025 ft | 499 kts | 73° |
| 2026-05-08 00:55 | 60.03870 | -158.51906 | 37025 ft | 500 kts | 73° |
| 2026-05-08 00:56 | 60.05690 | -158.38452 | 37028 ft | 501 kts | 73° |
| 2026-05-08 00:56 | 60.07499 | -158.24981 | 37028 ft | 501 kts | 73° |
| 2026-05-08 00:57 | 60.09294 | -158.11493 | 37029 ft | 501 kts | 74° |
| 2026-05-08 00:57 | 60.11067 | -157.98047 | 37033 ft | 503 kts | 74° |
| 2026-05-08 00:58 | 60.12843 | -157.84469 | 37043 ft | 504 kts | 74° |
| 2026-05-08 00:58 | 60.14613 | -157.70806 | 37033 ft | 503 kts | 74° |
| 2026-05-08 00:59 | 60.16349 | -157.57295 | 37035 ft | 503 kts | 75° |
| 2026-05-08 00:59 | 60.18084 | -157.43652 | 37042 ft | 504 kts | 75° |
| 2026-05-08 01:00 | 60.19808 | -157.29978 | 37041 ft | 505 kts | 75° |
| 2026-05-08 01:00 | 60.21522 | -157.16264 | 37042 ft | 505 kts | 75° |
| 2026-05-08 01:01 | 60.23218 | -157.02561 | 37039 ft | 505 kts | 75° |
| 2026-05-08 01:01 | 60.24905 | -156.88801 | 37039 ft | 507 kts | 75° |
| 2026-05-08 01:02 | 60.26580 | -156.75007 | 37039 ft | 507 kts | 75° |
| 2026-05-08 01:02 | 60.28241 | -156.61200 | 37029 ft | 507 kts | 76° |
| 2026-05-08 01:03 | 60.29884 | -156.47407 | 37026 ft | 506 kts | 76° |
| 2026-05-08 01:03 | 60.31518 | -156.33567 | 37038 ft | 508 kts | 76° |
| 2026-05-08 01:04 | 60.33140 | -156.19676 | 37028 ft | 509 kts | 76° |
| 2026-05-08 01:04 | 60.34748 | -156.05773 | 37034 ft | 508 kts | 76° |
| 2026-05-08 01:05 | 60.36341 | -155.91865 | 37044 ft | 508 kts | 76° |
| 2026-05-08 01:05 | 60.37921 | -155.77927 | 37044 ft | 509 kts | 77° |
| 2026-05-08 01:06 | 60.39488 | -155.63956 | 37036 ft | 509 kts | 77° |
| 2026-05-08 01:06 | 60.41040 | -155.49979 | 37031 ft | 509 kts | 77° |
| 2026-05-08 01:07 | 60.42576 | -155.36001 | 37030 ft | 509 kts | 77° |
| 2026-05-08 01:07 | 60.44099 | -155.21993 | 37032 ft | 510 kts | 77° |
| 2026-05-08 01:08 | 60.45608 | -155.07959 | 37026 ft | 510 kts | 77° |
| 2026-05-08 01:08 | 60.47106 | -154.93894 | 37024 ft | 509 kts | 77° |
| 2026-05-08 01:09 | 60.48584 | -154.79861 | 37042 ft | 510 kts | 78° |
| 2026-05-08 01:09 | 60.50055 | -154.65882 | 37027 ft | 511 kts | 73° |
| 2026-05-08 01:10 | 60.51950 | -154.51985 | 37029 ft | 512 kts | 75° |
| 2026-05-08 01:10 | 60.53811 | -154.38040 | 37027 ft | 511 kts | 75° |
| 2026-05-08 01:11 | 60.55643 | -154.24106 | 37032 ft | 510 kts | 75° |
| 2026-05-08 01:11 | 60.57464 | -154.10146 | 37038 ft | 511 kts | 75° |
| 2026-05-08 01:12 | 60.59274 | -153.96153 | 37045 ft | 512 kts | 75° |
| 2026-05-08 01:12 | 60.61068 | -153.82142 | 37045 ft | 512 kts | 75° |
| 2026-05-08 01:13 | 60.62849 | -153.68116 | 37053 ft | 511 kts | 76° |
| 2026-05-08 01:13 | 60.64611 | -153.54097 | 37063 ft | 511 kts | 76° |
| 2026-05-08 01:14 | 60.66362 | -153.40030 | 37081 ft | 513 kts | 76° |
| 2026-05-08 01:14 | 60.68102 | -153.25923 | 37064 ft | 512 kts | 76° |
| 2026-05-08 01:15 | 60.69533 | -153.14213 | 37058 ft | 511 kts | 76° |
| 2026-05-08 01:15 | 60.71240 | -153.00130 | 37065 ft | 512 kts | 76° |
| 2026-05-08 01:16 | 60.72937 | -152.85986 | 37063 ft | 513 kts | 77° |
| 2026-05-08 01:16 | 60.74619 | -152.71827 | 37049 ft | 512 kts | 77° |
| 2026-05-08 01:17 | 60.76284 | -152.57671 | 37045 ft | 511 kts | 77° |
| 2026-05-08 01:17 | 60.77934 | -152.43509 | 37042 ft | 512 kts | 77° |
| 2026-05-08 01:18 | 60.79572 | -152.29306 | 37048 ft | 514 kts | 77° |
| 2026-05-08 01:18 | 60.81238 | -152.15093 | 37043 ft | 512 kts | 80° |
| 2026-05-08 01:19 | 60.82611 | -152.00778 | 37052 ft | 512 kts | 79° |
| 2026-05-08 01:19 | 60.84005 | -151.86446 | 37056 ft | 513 kts | 79° |
| 2026-05-08 01:20 | 60.85397 | -151.72069 | 37050 ft | 514 kts | 79° |
| 2026-05-08 01:20 | 60.86773 | -151.57690 | 37057 ft | 513 kts | 80° |
| 2026-05-08 01:21 | 60.88454 | -151.43458 | 37048 ft | 514 kts | 69° |
| 2026-05-08 01:21 | 60.91133 | -151.29826 | 37088 ft | 517 kts | 69° |
| 2026-05-08 01:22 | 60.93812 | -151.16100 | 37056 ft | 516 kts | 68° |
| 2026-05-08 01:22 | 60.96244 | -151.02254 | 37063 ft | 513 kts | 73° |
| 2026-05-08 01:23 | 60.98436 | -150.88251 | 37058 ft | 515 kts | 73° |
| 2026-05-08 01:23 | 61.00480 | -150.74087 | 37058 ft | 516 kts | 79° |
| 2026-05-08 01:24 | 61.02130 | -150.59698 | 37055 ft | 516 kts | 78° |
| 2026-05-08 01:24 | 61.03753 | -150.45390 | 37051 ft | 515 kts | 77° |
| 2026-05-08 01:25 | 61.05998 | -150.31313 | 37085 ft | 515 kts | 57° |
| 2026-05-08 01:25 | 61.08192 | -150.25509 | 37138 ft | 513 kts | 41° |
| 2026-05-08 01:25 | 61.10977 | -150.21114 | 37180 ft | 512 kts | 25° |
| 2026-05-08 01:25 | 61.14246 | -150.18286 | 37205 ft | 508 kts | 10° |
| 2026-05-08 01:26 | 61.17722 | -150.17299 | 37220 ft | 502 kts | 354° |
| 2026-05-08 01:26 | 61.21141 | -150.18205 | 37225 ft | 493 kts | 339° |
| 2026-05-08 01:26 | 61.24283 | -150.20860 | 37245 ft | 484 kts | 328° |
| 2026-05-08 01:27 | 61.30310 | -150.27180 | 37121 ft | 486 kts | 332° |
| 2026-05-08 01:27 | 61.33522 | -150.29394 | 37109 ft | 488 kts | 343° |
| 2026-05-08 01:27 | 61.36824 | -150.31045 | 37096 ft | 487 kts | 339° |
| 2026-05-08 01:28 | 61.43065 | -150.36165 | 37090 ft | 477 kts | 320° |
| 2026-05-08 01:28 | 61.48604 | -150.43742 | 37143 ft | 487 kts | 336° |
| 2026-05-08 01:29 | 61.55276 | -150.46594 | 37141 ft | 500 kts | 2° |
| 2026-05-08 01:29 | 61.58709 | -150.45279 | 37166 ft | 505 kts | 18° |
| 2026-05-08 01:29 | 61.61883 | -150.42094 | 37182 ft | 509 kts | 34° |
| 2026-05-08 01:29 | 61.64579 | -150.37247 | 37198 ft | 513 kts | 50° |
| 2026-05-08 01:30 | 61.66603 | -150.31071 | 37215 ft | 515 kts | 65° |
| 2026-05-08 01:30 | 61.67811 | -150.23996 | 37212 ft | 514 kts | 81° |
| 2026-05-08 01:30 | 61.68120 | -150.16528 | 37218 ft | 511 kts | 97° |
| 2026-05-08 01:30 | 61.67515 | -150.09215 | 37222 ft | 506 kts | 112° |
| 2026-05-08 01:31 | 61.66046 | -150.02553 | 37229 ft | 499 kts | 128° |
| 2026-05-08 01:31 | 61.63834 | -149.97031 | 37231 ft | 491 kts | 144° |
| 2026-05-08 01:31 | 61.61045 | -149.93018 | 37243 ft | 483 kts | 160° |
| 2026-05-08 01:31 | 61.57893 | -149.90795 | 37254 ft | 475 kts | 175° |
| 2026-05-08 01:32 | 61.54624 | -149.90506 | 37254 ft | 468 kts | 191° |
| 2026-05-08 01:32 | 61.51497 | -149.92147 | 37253 ft | 462 kts | 207° |
| 2026-05-08 01:32 | 61.48755 | -149.95554 | 37267 ft | 458 kts | 220° |
| 2026-05-08 01:33 | 61.43778 | -150.03888 | 37114 ft | 459 kts | 218° |
| 2026-05-08 01:33 | 61.38162 | -150.09911 | 37065 ft | 459 kts | 192° |
| 2026-05-08 01:33 | 61.34964 | -150.10323 | 37116 ft | 466 kts | 176° |
| 2026-05-08 01:34 | 61.31817 | -150.08860 | 37180 ft | 476 kts | 164° |
| 2026-05-08 01:34 | 61.25473 | -150.04455 | 37120 ft | 481 kts | 168° |
| 2026-05-08 01:35 | 61.19040 | -150.00919 | 37063 ft | 476 kts | 168° |
| 2026-05-08 01:35 | 61.12679 | -149.97372 | 37060 ft | 473 kts | 168° |
| 2026-05-08 01:36 | 61.06315 | -149.93857 | 37054 ft | 475 kts | 169° |
| 2026-05-08 01:36 | 60.99923 | -149.90317 | 37057 ft | 475 kts | 169° |
| 2026-05-08 01:37 | 60.93542 | -149.86805 | 37049 ft | 474 kts | 169° |
| 2026-05-08 01:37 | 60.87176 | -149.83312 | 37055 ft | 473 kts | 169° |
| 2026-05-08 01:38 | 60.80798 | -149.79829 | 37052 ft | 474 kts | 169° |
| 2026-05-08 01:38 | 60.74422 | -149.76360 | 37060 ft | 474 kts | 169° |
| 2026-05-08 01:39 | 60.68050 | -149.72906 | 37059 ft | 473 kts | 169° |
| 2026-05-08 01:39 | 60.61694 | -149.69477 | 37064 ft | 472 kts | 169° |
| 2026-05-08 01:40 | 60.55358 | -149.66072 | 37078 ft | 472 kts | 169° |
| 2026-05-08 01:40 | 60.48998 | -149.62668 | 37072 ft | 472 kts | 169° |
| 2026-05-08 01:41 | 60.42649 | -149.59283 | 37083 ft | 471 kts | 169° |
| 2026-05-08 01:41 | 60.36321 | -149.55924 | 37086 ft | 470 kts | 169° |
| 2026-05-08 01:42 | 60.29985 | -149.52573 | 37098 ft | 471 kts | 169° |
| 2026-05-08 01:42 | 60.23654 | -149.49237 | 37101 ft | 470 kts | 169° |
| 2026-05-08 01:43 | 60.17331 | -149.45923 | 37108 ft | 469 kts | 169° |
| 2026-05-08 01:43 | 60.11053 | -149.42640 | 37108 ft | 470 kts | 169° |
| 2026-05-08 01:44 | 60.04733 | -149.39352 | 37103 ft | 469 kts | 169° |
| 2026-05-08 01:44 | 59.98421 | -149.36080 | 37103 ft | 468 kts | 169° |
| 2026-05-08 01:45 | 59.92117 | -149.32824 | 37105 ft | 468 kts | 169° |
| 2026-05-08 01:45 | 59.85813 | -149.29582 | 37103 ft | 468 kts | 169° |
| 2026-05-08 01:46 | 59.79508 | -149.26352 | 37102 ft | 467 kts | 169° |
| 2026-05-08 01:46 | 59.73227 | -149.23146 | 37099 ft | 466 kts | 170° |
| 2026-05-08 01:47 | 59.66952 | -149.19957 | 37098 ft | 466 kts | 170° |
| 2026-05-08 01:47 | 59.60673 | -149.16777 | 37099 ft | 466 kts | 170° |
| 2026-05-08 01:48 | 59.51278 | -149.12042 | 37091 ft | 464 kts | 170° |
| 2026-05-08 01:48 | 59.45025 | -149.08906 | 37087 ft | 463 kts | 170° |
| 2026-05-08 01:49 | 59.38776 | -149.05785 | 37090 ft | 463 kts | 170° |
| 2026-05-08 01:49 | 59.32533 | -149.02676 | 37088 ft | 463 kts | 170° |
| 2026-05-08 01:50 | 59.26300 | -148.99587 | 37081 ft | 462 kts | 170° |
| 2026-05-08 01:50 | 59.20070 | -148.96508 | 37087 ft | 461 kts | 170° |
| 2026-05-08 01:51 | 59.13853 | -148.93450 | 37085 ft | 461 kts | 170° |
| 2026-05-08 01:51 | 59.07633 | -148.90398 | 37085 ft | 461 kts | 170° |
| 2026-05-08 01:52 | 59.01425 | -148.87366 | 37082 ft | 459 kts | 170° |
| 2026-05-08 01:52 | 58.95226 | -148.84349 | 37083 ft | 459 kts | 171° |
| 2026-05-08 01:53 | 58.89036 | -148.81349 | 37079 ft | 459 kts | 171° |
| 2026-05-08 01:53 | 58.82844 | -148.78358 | 37079 ft | 458 kts | 171° |
| 2026-05-08 01:54 | 58.76660 | -148.75381 | 37077 ft | 457 kts | 171° |
| 2026-05-08 01:54 | 58.70494 | -148.72424 | 37078 ft | 456 kts | 171° |
| 2026-05-08 01:55 | 58.64334 | -148.69482 | 37072 ft | 456 kts | 171° |
| 2026-05-08 01:55 | 58.58169 | -148.66547 | 37065 ft | 456 kts | 171° |
| 2026-05-08 01:56 | 58.52016 | -148.63626 | 37072 ft | 455 kts | 171° |
| 2026-05-08 01:56 | 58.45880 | -148.60729 | 37071 ft | 454 kts | 171° |
| 2026-05-08 01:57 | 58.39748 | -148.57839 | 37071 ft | 454 kts | 171° |
| 2026-05-08 01:57 | 58.33615 | -148.54963 | 37069 ft | 454 kts | 171° |
| 2026-05-08 01:58 | 58.27534 | -148.52119 | 37065 ft | 453 kts | 171° |
| 2026-05-08 01:58 | 58.21422 | -148.49272 | 37063 ft | 452 kts | 171° |
| 2026-05-08 01:59 | 58.15320 | -148.46439 | 37059 ft | 452 kts | 171° |
| 2026-05-08 01:59 | 58.09213 | -148.43612 | 37057 ft | 452 kts | 171° |
| 2026-05-08 02:00 | 58.03118 | -148.40804 | 37055 ft | 450 kts | 171° |
| 2026-05-08 02:00 | 57.97040 | -148.38010 | 37057 ft | 449 kts | 171° |
| 2026-05-08 02:01 | 57.90963 | -148.35229 | 37056 ft | 449 kts | 172° |
| 2026-05-08 02:01 | 57.84886 | -148.32456 | 37049 ft | 449 kts | 172° |
| 2026-05-08 02:02 | 57.79796 | -148.30143 | 37051 ft | 449 kts | 172° |
| 2026-05-08 02:02 | 57.73775 | -148.27412 | 37048 ft | 448 kts | 172° |
| 2026-05-08 02:03 | 57.67719 | -148.24678 | 37048 ft | 447 kts | 172° |
| 2026-05-08 02:03 | 57.61667 | -148.21952 | 37048 ft | 447 kts | 172° |
| 2026-05-08 02:04 | 57.55617 | -148.19238 | 37035 ft | 447 kts | 172° |
| 2026-05-08 02:04 | 57.49562 | -148.16531 | 37049 ft | 447 kts | 172° |
| 2026-05-08 02:05 | 57.43515 | -148.13836 | 37041 ft | 447 kts | 172° |
| 2026-05-08 02:05 | 57.37474 | -148.11153 | 37036 ft | 447 kts | 172° |
| 2026-05-08 02:06 | 57.31426 | -148.08476 | 37035 ft | 447 kts | 171° |
| 2026-05-08 02:06 | 57.25376 | -148.05808 | 37029 ft | 447 kts | 171° |
| 2026-05-08 02:07 | 57.19333 | -148.03151 | 37023 ft | 446 kts | 171° |
| 2026-05-08 02:07 | 57.13292 | -148.00505 | 37021 ft | 446 kts | 171° |
| 2026-05-08 02:08 | 57.07245 | -147.97863 | 37021 ft | 447 kts | 171° |
| 2026-05-08 02:08 | 57.01191 | -147.95229 | 37022 ft | 447 kts | 171° |
| 2026-05-08 02:09 | 56.95142 | -147.92606 | 37017 ft | 447 kts | 171° |
| 2026-05-08 02:09 | 56.89098 | -147.89993 | 37011 ft | 446 kts | 171° |
| 2026-05-08 02:10 | 56.83051 | -147.87388 | 37012 ft | 446 kts | 171° |
| 2026-05-08 02:10 | 56.76999 | -147.84788 | 37017 ft | 447 kts | 171° |
| 2026-05-08 02:11 | 56.70942 | -147.82196 | 37031 ft | 447 kts | 171° |
| 2026-05-08 02:11 | 56.64893 | -147.79616 | 37021 ft | 446 kts | 171° |
| 2026-05-08 02:12 | 56.58851 | -147.77046 | 36998 ft | 446 kts | 171° |
| 2026-05-08 02:12 | 56.52817 | -147.74490 | 36987 ft | 445 kts | 171° |
| 2026-05-08 02:13 | 56.46815 | -147.71953 | 36992 ft | 446 kts | 171° |
| 2026-05-08 02:13 | 56.40725 | -147.69389 | 37029 ft | 448 kts | 171° |
| 2026-05-08 02:14 | 56.34700 | -147.66860 | 36981 ft | 446 kts | 171° |
| 2026-05-08 02:14 | 56.28679 | -147.64342 | 36980 ft | 444 kts | 171° |
| 2026-05-08 02:15 | 56.25649 | -147.63511 | 36968 ft | 438 kts | 185° |
| 2026-05-08 02:15 | 56.22671 | -147.64325 | 37043 ft | 433 kts | 201° |
| 2026-05-08 02:15 | 56.19994 | -147.66767 | 37118 ft | 434 kts | 218° |
| 2026-05-08 02:15 | 56.17861 | -147.70609 | 37147 ft | 440 kts | 235° |
| 2026-05-08 02:16 | 56.16464 | -147.75537 | 37152 ft | 448 kts | 251° |
| 2026-05-08 02:16 | 56.15957 | -147.81082 | 37159 ft | 456 kts | 268° |
| 2026-05-08 02:16 | 56.16399 | -147.86746 | 37155 ft | 464 kts | 284° |
| 2026-05-08 02:16 | 56.17766 | -147.92039 | 37153 ft | 474 kts | 301° |
| 2026-05-08 02:17 | 56.19952 | -147.96504 | 37152 ft | 483 kts | 317° |
| 2026-05-08 02:17 | 56.22808 | -147.99790 | 37158 ft | 493 kts | 334° |
| 2026-05-08 02:17 | 56.29450 | -148.03381 | 37087 ft | 504 kts | 343° |
| 2026-05-08 02:18 | 56.36282 | -148.06130 | 37001 ft | 501 kts | 345° |
| 2026-05-08 02:18 | 56.43087 | -148.08697 | 37011 ft | 500 kts | 345° |
| 2026-05-08 02:19 | 56.49917 | -148.11222 | 36996 ft | 502 kts | 345° |
| 2026-05-08 02:19 | 56.56762 | -148.13732 | 36990 ft | 502 kts | 345° |
| 2026-05-08 02:20 | 56.63595 | -148.16211 | 36995 ft | 501 kts | 345° |
| 2026-05-08 02:20 | 56.70437 | -148.18680 | 37029 ft | 502 kts | 345° |
| 2026-05-08 02:21 | 56.77250 | -148.21121 | 37005 ft | 502 kts | 345° |
| 2026-05-08 02:21 | 56.84099 | -148.23554 | 37008 ft | 501 kts | 345° |
| 2026-05-08 02:22 | 56.90948 | -148.25967 | 37015 ft | 501 kts | 345° |
| 2026-05-08 02:22 | 56.97806 | -148.28373 | 37025 ft | 503 kts | 345° |
| 2026-05-08 02:23 | 57.04683 | -148.30775 | 37018 ft | 502 kts | 345° |
| 2026-05-08 02:23 | 57.11542 | -148.33158 | 37018 ft | 501 kts | 345° |
| 2026-05-08 02:24 | 57.18404 | -148.35530 | 37024 ft | 502 kts | 345° |
| 2026-05-08 02:24 | 57.25278 | -148.37899 | 37028 ft | 503 kts | 345° |
| 2026-05-08 02:25 | 57.32158 | -148.40263 | 37028 ft | 503 kts | 345° |
| 2026-05-08 02:25 | 57.39031 | -148.42610 | 37033 ft | 502 kts | 345° |
| 2026-05-08 02:26 | 57.45904 | -148.44947 | 37037 ft | 502 kts | 345° |
| 2026-05-08 02:26 | 57.52787 | -148.47279 | 37035 ft | 503 kts | 345° |
| 2026-05-08 02:27 | 57.59678 | -148.49611 | 37040 ft | 503 kts | 345° |
| 2026-05-08 02:27 | 57.66554 | -148.51939 | 37040 ft | 502 kts | 345° |
| 2026-05-08 02:28 | 57.73420 | -148.54270 | 37048 ft | 502 kts | 345° |
| 2026-05-08 02:28 | 57.80247 | -148.56595 | 37047 ft | 502 kts | 345° |
| 2026-05-08 02:29 | 57.87175 | -148.58962 | 37046 ft | 502 kts | 345° |
| 2026-05-08 02:29 | 57.93995 | -148.61298 | 37051 ft | 501 kts | 345° |
| 2026-05-08 02:30 | 58.00899 | -148.63665 | 37052 ft | 501 kts | 345° |
| 2026-05-08 02:30 | 58.07714 | -148.66009 | 37056 ft | 501 kts | 345° |
| 2026-05-08 02:31 | 58.14575 | -148.68378 | 37057 ft | 501 kts | 345° |
| 2026-05-08 02:31 | 58.21422 | -148.70750 | 37056 ft | 500 kts | 345° |
| 2026-05-08 02:32 | 58.28254 | -148.73126 | 37066 ft | 500 kts | 345° |
| 2026-05-08 02:32 | 58.35101 | -148.75515 | 37065 ft | 500 kts | 345° |
| 2026-05-08 02:33 | 58.41949 | -148.77912 | 37062 ft | 500 kts | 345° |
| 2026-05-08 02:33 | 58.48780 | -148.80310 | 37073 ft | 499 kts | 345° |
| 2026-05-08 02:34 | 58.55599 | -148.82718 | 37066 ft | 499 kts | 345° |
| 2026-05-08 02:34 | 58.62427 | -148.85146 | 37072 ft | 499 kts | 345° |
| 2026-05-08 02:35 | 58.69246 | -148.87585 | 37073 ft | 498 kts | 345° |
| 2026-05-08 02:35 | 58.76053 | -148.90036 | 37079 ft | 497 kts | 345° |
| 2026-05-08 02:36 | 58.82861 | -148.92502 | 37080 ft | 497 kts | 345° |
| 2026-05-08 02:36 | 58.89664 | -148.94988 | 37084 ft | 498 kts | 345° |
| 2026-05-08 02:37 | 58.96468 | -148.97491 | 37077 ft | 497 kts | 345° |
| 2026-05-08 02:37 | 59.03215 | -148.99992 | 37080 ft | 496 kts | 345° |
| 2026-05-08 02:38 | 59.10033 | -149.02538 | 37081 ft | 496 kts | 345° |
| 2026-05-08 02:38 | 59.16824 | -149.05092 | 37083 ft | 497 kts | 345° |
| 2026-05-08 02:39 | 59.23560 | -149.07643 | 37084 ft | 496 kts | 345° |
| 2026-05-08 02:39 | 59.30374 | -149.10240 | 37087 ft | 495 kts | 345° |
| 2026-05-08 02:40 | 59.37135 | -149.12833 | 37088 ft | 495 kts | 345° |
| 2026-05-08 02:40 | 59.43908 | -149.15448 | 37089 ft | 496 kts | 345° |
| 2026-05-08 02:41 | 59.50672 | -149.18073 | 37085 ft | 495 kts | 345° |
| 2026-05-08 02:41 | 59.57379 | -149.20688 | 37091 ft | 494 kts | 345° |
| 2026-05-08 02:42 | 59.64124 | -149.23329 | 37097 ft | 494 kts | 345° |
| 2026-05-08 02:42 | 59.70877 | -149.25985 | 37097 ft | 495 kts | 345° |
| 2026-05-08 02:43 | 59.77623 | -149.28652 | 37098 ft | 494 kts | 345° |
| 2026-05-08 02:43 | 59.84353 | -149.31324 | 37099 ft | 493 kts | 345° |
| 2026-05-08 02:44 | 59.91078 | -149.34006 | 37104 ft | 493 kts | 345° |
| 2026-05-08 02:44 | 59.97802 | -149.36700 | 37104 ft | 493 kts | 345° |
| 2026-05-08 02:45 | 60.04530 | -149.39410 | 37104 ft | 493 kts | 345° |
| 2026-05-08 02:45 | 60.11249 | -149.42127 | 37102 ft | 492 kts | 345° |
| 2026-05-08 02:46 | 60.17957 | -149.44852 | 37110 ft | 492 kts | 345° |
| 2026-05-08 02:46 | 60.24668 | -149.47592 | 37110 ft | 493 kts | 345° |
| 2026-05-08 02:47 | 60.31384 | -149.50345 | 37094 ft | 492 kts | 345° |
| 2026-05-08 02:47 | 60.38088 | -149.53103 | 37089 ft | 492 kts | 345° |
| 2026-05-08 02:48 | 60.44790 | -149.55871 | 37089 ft | 492 kts | 345° |
| 2026-05-08 02:48 | 60.50367 | -149.58186 | 37079 ft | 492 kts | 345° |
| 2026-05-08 02:49 | 60.57080 | -149.60985 | 37071 ft | 492 kts | 344° |
| 2026-05-08 02:49 | 60.63770 | -149.63786 | 37063 ft | 491 kts | 345° |
| 2026-05-08 02:50 | 60.70461 | -149.66598 | 37064 ft | 491 kts | 345° |
| 2026-05-08 02:50 | 60.77160 | -149.69426 | 37066 ft | 492 kts | 345° |
| 2026-05-08 02:51 | 60.83855 | -149.72264 | 37059 ft | 491 kts | 344° |
| 2026-05-08 02:51 | 60.90545 | -149.75107 | 37058 ft | 490 kts | 344° |
| 2026-05-08 02:52 | 60.97221 | -149.77952 | 37056 ft | 490 kts | 344° |
| 2026-05-08 02:52 | 61.03793 | -149.80751 | 37022 ft | 474 kts | 344° |
| 2026-05-08 02:53 | 61.10142 | -149.83445 | 36754 ft | 464 kts | 340° |
| 2026-05-08 02:53 | 61.13108 | -149.85872 | 36296 ft | 454 kts | 322° |
| 2026-05-08 02:53 | 61.15512 | -149.89872 | 35939 ft | 437 kts | 305° |
| 2026-05-08 02:54 | 61.17156 | -149.95006 | 35609 ft | 421 kts | 288° |
| 2026-05-08 02:54 | 61.17903 | -150.00720 | 35285 ft | 408 kts | 270° |
| 2026-05-08 02:54 | 61.17708 | -150.06501 | 34982 ft | 399 kts | 253° |
| 2026-05-08 02:54 | 61.16875 | -150.11967 | 34671 ft | 397 kts | 248° |
| 2026-05-08 02:55 | 61.15870 | -150.17282 | 34268 ft | 395 kts | 246° |
| 2026-05-08 02:55 | 61.13722 | -150.27665 | 33332 ft | 391 kts | 245° |
| 2026-05-08 02:55 | 61.12628 | -150.32804 | 32836 ft | 389 kts | 245° |
| 2026-05-08 02:56 | 61.11538 | -150.37907 | 32347 ft | 387 kts | 245° |
| 2026-05-08 02:56 | 61.10454 | -150.42982 | 31931 ft | 383 kts | 245° |
| 2026-05-08 02:56 | 61.09389 | -150.47985 | 31611 ft | 378 kts | 245° |
| 2026-05-08 02:56 | 61.08342 | -150.52921 | 31274 ft | 373 kts | 245° |
| 2026-05-08 02:57 | 61.07314 | -150.57791 | 30957 ft | 368 kts | 245° |
| 2026-05-08 02:57 | 61.06303 | -150.62606 | 30626 ft | 363 kts | 245° |
| 2026-05-08 02:57 | 61.05286 | -150.67336 | 30303 ft | 358 kts | 243° |
| 2026-05-08 02:57 | 61.04181 | -150.71895 | 29956 ft | 353 kts | 241° |
| 2026-05-08 02:58 | 61.03041 | -150.76352 | 29582 ft | 349 kts | 240° |
| 2026-05-08 02:58 | 61.01896 | -150.80725 | 29202 ft | 345 kts | 240° |
| 2026-05-08 02:58 | 61.00766 | -150.84988 | 28829 ft | 341 kts | 240° |
| 2026-05-08 02:58 | 60.99615 | -150.89300 | 28455 ft | 337 kts | 240° |
| 2026-05-08 02:59 | 60.98491 | -150.93497 | 28093 ft | 333 kts | 240° |
| 2026-05-08 02:59 | 60.97392 | -150.97585 | 27738 ft | 329 kts | 240° |
| 2026-05-08 02:59 | 60.96288 | -151.01681 | 27391 ft | 326 kts | 240° |
| 2026-05-08 02:59 | 60.95192 | -151.05736 | 27037 ft | 322 kts | 240° |
| 2026-05-08 03:00 | 60.94109 | -151.09742 | 26707 ft | 319 kts | 240° |
| 2026-05-08 03:00 | 60.93034 | -151.13706 | 26362 ft | 316 kts | 240° |
| 2026-05-08 03:00 | 60.91965 | -151.17644 | 26031 ft | 315 kts | 240° |
| 2026-05-08 03:00 | 60.90896 | -151.21572 | 25707 ft | 315 kts | 240° |
| 2026-05-08 03:01 | 60.89825 | -151.25498 | 25302 ft | 317 kts | 240° |
| 2026-05-08 03:01 | 60.88740 | -151.29468 | 24801 ft | 319 kts | 240° |
| 2026-05-08 03:01 | 60.87645 | -151.33461 | 24313 ft | 321 kts | 240° |
| 2026-05-08 03:01 | 60.86545 | -151.37467 | 23854 ft | 323 kts | 240° |
| 2026-05-08 03:02 | 60.85435 | -151.41496 | 23313 ft | 325 kts | 240° |
| 2026-05-08 03:02 | 60.84319 | -151.45548 | 22753 ft | 327 kts | 241° |
| 2026-05-08 03:02 | 60.83540 | -151.49943 | 22195 ft | 331 kts | 256° |
| 2026-05-08 03:02 | 60.83179 | -151.54615 | 21687 ft | 333 kts | 259° |
| 2026-05-08 03:03 | 60.82916 | -151.59348 | 21152 ft | 335 kts | 261° |
| 2026-05-08 03:03 | 60.82689 | -151.64111 | 20618 ft | 337 kts | 262° |
| 2026-05-08 03:03 | 60.82487 | -151.68845 | 20110 ft | 339 kts | 262° |
| 2026-05-08 03:03 | 60.82307 | -151.73670 | 19597 ft | 340 kts | 263° |
| 2026-05-08 03:04 | 60.82127 | -151.78515 | 19096 ft | 341 kts | 262° |
| 2026-05-08 03:04 | 60.81895 | -151.83238 | 18590 ft | 322 kts | 261° |
| 2026-05-08 03:04 | 60.81660 | -151.87570 | 18359 ft | 295 kts | 260° |
| 2026-05-08 03:04 | 60.81432 | -151.91704 | 18041 ft | 291 kts | 262° |
| 2026-05-08 03:05 | 60.81693 | -151.95822 | 17681 ft | 293 kts | 287° |
| 2026-05-08 03:05 | 60.82853 | -151.99215 | 17388 ft | 297 kts | 314° |
| 2026-05-08 03:05 | 60.84691 | -152.01265 | 17104 ft | 310 kts | 340° |
| 2026-05-08 03:05 | 60.86865 | -152.01566 | 16835 ft | 321 kts | 6° |
| 2026-05-08 03:06 | 60.88976 | -152.00017 | 16549 ft | 327 kts | 31° |
| 2026-05-08 03:06 | 60.90638 | -151.96876 | 16259 ft | 326 kts | 56° |
| 2026-05-08 03:06 | 60.91579 | -151.92711 | 15979 ft | 320 kts | 77° |
| 2026-05-08 03:06 | 60.92116 | -151.88281 | 15660 ft | 318 kts | 81° |
| 2026-05-08 03:07 | 60.92531 | -151.83835 | 15336 ft | 313 kts | 90° |
| 2026-05-08 03:07 | 60.92540 | -151.79487 | 15023 ft | 296 kts | 96° |
| 2026-05-08 03:07 | 60.92362 | -151.75342 | 14569 ft | 288 kts | 103° |
| 2026-05-08 03:07 | 60.92058 | -151.71341 | 14117 ft | 282 kts | 99° |
| 2026-05-08 03:08 | 60.91998 | -151.67319 | 13634 ft | 276 kts | 102° |
| 2026-05-08 03:08 | 60.91636 | -151.63479 | 13152 ft | 272 kts | 107° |
| 2026-05-08 03:08 | 60.91210 | -151.59766 | 12671 ft | 269 kts | 108° |
| 2026-05-08 03:08 | 60.90762 | -151.56072 | 12192 ft | 264 kts | 108° |
| 2026-05-08 03:09 | 60.90302 | -151.52464 | 11706 ft | 260 kts | 109° |
| 2026-05-08 03:09 | 60.89835 | -151.48892 | 11182 ft | 257 kts | 108° |
| 2026-05-08 03:09 | 60.89382 | -151.45386 | 10659 ft | 252 kts | 109° |
| 2026-05-08 03:09 | 60.88953 | -151.41937 | 10120 ft | 247 kts | 105° |
| 2026-05-08 03:10 | 60.89019 | -151.38437 | 9522 ft | 250 kts | 75° |
| 2026-05-08 03:10 | 60.89714 | -151.35157 | 8999 ft | 252 kts | 67° |
| 2026-05-08 03:10 | 60.90504 | -151.31940 | 8473 ft | 251 kts | 65° |
| 2026-05-08 03:10 | 60.91300 | -151.28810 | 8194 ft | 244 kts | 65° |
| 2026-05-08 03:11 | 60.92086 | -151.25691 | 8092 ft | 247 kts | 66° |
| 2026-05-08 03:11 | 60.92864 | -151.22536 | 8061 ft | 248 kts | 66° |
| 2026-05-08 03:11 | 60.93637 | -151.19363 | 8032 ft | 249 kts | 67° |
| 2026-05-08 03:11 | 60.94377 | -151.16154 | 8013 ft | 248 kts | 69° |
| 2026-05-08 03:12 | 60.95074 | -151.12904 | 8002 ft | 247 kts | 71° |
| 2026-05-08 03:12 | 60.95730 | -151.09632 | 7997 ft | 248 kts | 71° |
| 2026-05-08 03:12 | 60.96372 | -151.06336 | 7997 ft | 248 kts | 72° |
| 2026-05-08 03:12 | 60.97008 | -151.03038 | 7994 ft | 247 kts | 72° |
| 2026-05-08 03:13 | 60.97574 | -150.99710 | 7995 ft | 246 kts | 76° |
| 2026-05-08 03:13 | 60.98049 | -150.96328 | 7996 ft | 246 kts | 78° |
| 2026-05-08 03:13 | 60.98477 | -150.92972 | 7998 ft | 246 kts | 79° |
| 2026-05-08 03:13 | 60.98891 | -150.89565 | 7995 ft | 245 kts | 79° |
| 2026-05-08 03:14 | 60.99285 | -150.86273 | 7955 ft | 232 kts | 80° |
| 2026-05-08 03:14 | 60.99615 | -150.83346 | 7954 ft | 232 kts | 81° |
| 2026-05-08 03:14 | 60.99973 | -150.80093 | 7961 ft | 233 kts | 81° |
| 2026-05-08 03:14 | 61.00327 | -150.76829 | 7971 ft | 234 kts | 81° |
| 2026-05-08 03:15 | 61.00686 | -150.73563 | 7936 ft | 236 kts | 81° |
| 2026-05-08 03:15 | 61.01048 | -150.70252 | 7716 ft | 237 kts | 81° |
| 2026-05-08 03:15 | 61.01407 | -150.66957 | 7513 ft | 233 kts | 81° |
| 2026-05-08 03:15 | 61.01771 | -150.63710 | 7232 ft | 232 kts | 81° |
| 2026-05-08 03:16 | 61.02134 | -150.60520 | 7068 ft | 225 kts | 81° |
| 2026-05-08 03:16 | 61.02485 | -150.57480 | 6999 ft | 213 kts | 81° |
| 2026-05-08 03:16 | 61.02828 | -150.54555 | 6972 ft | 207 kts | 81° |
| 2026-05-08 03:16 | 61.03169 | -150.51671 | 6956 ft | 207 kts | 81° |
| 2026-05-08 03:17 | 61.03510 | -150.48790 | 6960 ft | 207 kts | 81° |
| 2026-05-08 03:17 | 61.03855 | -150.45904 | 6970 ft | 207 kts | 81° |
| 2026-05-08 03:17 | 61.04200 | -150.43018 | 6977 ft | 207 kts | 81° |
| 2026-05-08 03:17 | 61.04545 | -150.40132 | 6982 ft | 207 kts | 81° |
| 2026-05-08 03:18 | 61.04890 | -150.37246 | 6977 ft | 207 kts | 81° |
| 2026-05-08 03:18 | 61.05237 | -150.34356 | 6913 ft | 209 kts | 81° |
| 2026-05-08 03:18 | 61.05586 | -150.31438 | 6638 ft | 209 kts | 81° |
| 2026-05-08 03:18 | 61.06106 | -150.28647 | 6208 ft | 215 kts | 57° |
| 2026-05-08 03:19 | 61.07286 | -150.26721 | 5267 ft | 226 kts | 27° |
| 2026-05-08 03:19 | 61.08724 | -150.25499 | 4818 ft | 214 kts | 23° |
| 2026-05-08 03:19 | 61.10115 | -150.24459 | 5032 ft | 214 kts | 22° |
| 2026-05-08 03:19 | 61.11529 | -150.23444 | 5046 ft | 214 kts | 21° |
| 2026-05-08 03:20 | 61.12931 | -150.22460 | 5007 ft | 212 kts | 21° |
| 2026-05-08 03:20 | 61.14311 | -150.21504 | 4995 ft | 213 kts | 21° |
| 2026-05-08 03:20 | 61.15729 | -150.20527 | 5008 ft | 211 kts | 20° |
| 2026-05-08 03:20 | 61.17208 | -150.20245 | 4749 ft | 223 kts | 351° |
| 2026-05-08 03:21 | 61.18749 | -150.20872 | 4699 ft | 220 kts | 347° |
| 2026-05-08 03:21 | 61.20191 | -150.21581 | 5011 ft | 217 kts | 345° |
| 2026-05-08 03:21 | 61.21678 | -150.22375 | 5048 ft | 219 kts | 345° |
| 2026-05-08 03:21 | 61.23151 | -150.23186 | 5019 ft | 218 kts | 345° |
| 2026-05-08 03:22 | 61.24607 | -150.24064 | 5021 ft | 218 kts | 342° |
| 2026-05-08 03:22 | 61.26053 | -150.25039 | 5011 ft | 218 kts | 341° |
| 2026-05-08 03:22 | 61.27499 | -150.25965 | 5002 ft | 218 kts | 343° |
| 2026-05-08 03:22 | 61.28998 | -150.26818 | 5029 ft | 226 kts | 345° |
| 2026-05-08 03:23 | 61.30474 | -150.27621 | 5000 ft | 218 kts | 345° |
| 2026-05-08 03:23 | 61.31974 | -150.28421 | 4938 ft | 221 kts | 345° |
| 2026-05-08 03:23 | 61.33460 | -150.29207 | 4856 ft | 220 kts | 345° |
| 2026-05-08 03:23 | 61.34921 | -150.29977 | 4732 ft | 219 kts | 345° |
| 2026-05-08 03:24 | 61.36400 | -150.30750 | 4564 ft | 218 kts | 345° |
| 2026-05-08 03:24 | 61.37870 | -150.31518 | 4317 ft | 215 kts | 345° |
| 2026-05-08 03:24 | 61.39326 | -150.32222 | 3929 ft | 216 kts | 353° |
| 2026-05-08 03:24 | 61.40843 | -150.32355 | 3480 ft | 219 kts | 3° |
| 2026-05-08 03:25 | 61.42327 | -150.31952 | 3258 ft | 211 kts | 11° |
| 2026-05-08 03:25 | 61.43701 | -150.31033 | 2830 ft | 211 kts | 37° |
| 2026-05-08 03:25 | 61.44719 | -150.28823 | 2452 ft | 201 kts | 57° |
| 2026-05-08 03:25 | 61.45224 | -150.26205 | 2236 ft | 196 kts | 92° |
| 2026-05-08 03:26 | 61.44976 | -150.23528 | 2008 ft | 184 kts | 115° |
| 2026-05-08 03:26 | 61.44576 | -150.21029 | 2001 ft | 181 kts | 108° |
| 2026-05-08 03:26 | 61.43869 | -150.18903 | 1693 ft | 181 kts | 149° |
| 2026-05-08 03:26 | 61.42930 | -150.17277 | 1881 ft | 178 kts | 141° |
| 2026-05-08 03:27 | 61.41866 | -150.15970 | 1710 ft | 181 kts | 156° |
| 2026-05-08 03:27 | 61.40787 | -150.14805 | 1939 ft | 173 kts | 158° |
| 2026-05-08 03:27 | 61.39662 | -150.13806 | 2269 ft | 177 kts | 161° |
| 2026-05-08 03:27 | 61.38475 | -150.13086 | 2316 ft | 178 kts | 165° |
| 2026-05-08 03:28 | 61.37327 | -150.12123 | 2312 ft | 172 kts | 157° |
| 2026-05-08 03:28 | 61.36225 | -150.11087 | 2628 ft | 177 kts | 160° |
| 2026-05-08 03:28 | 61.35062 | -150.10252 | 2783 ft | 176 kts | 165° |
| 2026-05-08 03:28 | 61.33877 | -150.09712 | 2976 ft | 176 kts | 175° |
| 2026-05-08 03:29 | 61.32659 | -150.09297 | 3011 ft | 175 kts | 163° |
| 2026-05-08 03:29 | 61.31504 | -150.08480 | 2919 ft | 180 kts | 162° |
| 2026-05-08 03:29 | 61.30334 | -150.07569 | 2553 ft | 177 kts | 160° |
| 2026-05-08 03:29 | 61.29203 | -150.06651 | 2242 ft | 172 kts | 161° |
| 2026-05-08 03:30 | 61.26955 | -150.05234 | 1729 ft | 161 kts | 169° |
| 2026-05-08 03:30 | 61.24761 | -150.04074 | 1220 ft | 165 kts | 169° |
| 2026-05-08 03:31 | 61.23664 | -150.03552 | 1212 ft | 163 kts | 169° |
| 2026-05-08 03:31 | 61.21967 | -150.02609 | 673 ft | 172 kts | 167° |
| 2026-05-08 03:32 | 61.20800 | -150.01930 | 473 ft | 173 kts | 165° |
| 2026-05-08 03:32 | 61.19651 | -150.01273 | 205 ft | 170 kts | 163° |
| 2026-05-08 03:32 | 61.18588 | -150.00665 | 161 ft | 138 kts | 165° |
| 2026-05-08 03:32 | 61.18129 | -150.00418 | 150 ft | 28 kts | 165° |
| 2026-05-08 03:33 | 61.17985 | -150.00313 | 151 ft | 21 kts | 151° |